Zarling — WDD7883 — position and weather

sailwx.info

Track history (hours):
 
Tides and Currents Weather Stations Pressure Air Temp Water Temp Dewpoint Dewpoint Depression Visibility Wind Speed Wind Dir Waves Ship Positions

Zarling

Owner: Clean Rivers Co-op, Portland, OR. More information available from US FCC via Universal Licensing System.

Last reported at 2014-Dec-22 02:25 UTC. Time now 2014-Dec-22 02:49 UTC.
Position N 46°05' W 122°56'.

Length 12 m.

Type: Pollution control. MMSI: 3699126.

Date/timePositionNaut miles runAvg speedWind from/ knotsBaromVisibWave heightAir tempDewpointWater temp
2014-Dec-22 02:25N 46°05' W 122°56'29637.0
2014-Dec-22 02:22N 45°37' W 122°48'658.1
2014-Dec-22 02:16N 45°33' W 122°42'49370.2
2014-Dec-22 02:09N 46°12' W 123°23'4364.1
2014-Dec-22 01:28N 45°37' W 122°48'67035.3
2014-Dec-22 01:28N 45°33' W 122°42'348075.0
2014-Dec-22 01:28N 46°05' W 122°56'20115.4
2014-Dec-22 01:18N 46°12' W 123°23'0 0.0
2014-Dec-22 00:32N 46°12' W 123°23'432411.4
2014-Dec-22 00:31N 45°37' W 122°48'6117.9
2014-Dec-22 00:28N 45°33' W 122°42'346729.2
2014-Dec-22 00:28N 46°05' W 122°56'2022.0
2014-Dec-21 23:33N 46°12' W 123°23'432303.7
2014-Dec-21 23:31N 45°37' W 122°48'6116.5
2014-Dec-21 23:28N 45°33' W 122°42'34320.4
2014-Dec-21 23:22N 46°05' W 122°56'2024.6
2014-Dec-21 22:33N 46°12' W 123°23'20862.2
2014-Dec-21 22:31N 46°05' W 122°56'29653.3
2014-Dec-21 22:28N 45°37' W 122°48'658.3
2014-Dec-21 22:22N 45°33' W 122°42'3439.4
2014-Dec-21 21:31N 46°05' W 122°56'29302.7
2014-Dec-21 21:25N 45°37' W 122°48'431353.9
2014-Dec-21 21:24N 46°12' W 123°23'49152.5
2014-Dec-21 21:04N 45°33' W 122°42'4991.4
2014-Dec-21 20:32N 46°12' W 123°23'20904.8
2014-Dec-21 20:31N 46°05' W 122°56'29645.0
2014-Dec-21 20:28N 45°37' W 122°48'0 0.0
2014-Dec-21 19:25N 45°37' W 122°48'431342.0
2014-Dec-21 19:24N 46°12' W 123°23'20842.4
2014-Dec-21 19:22N 46°05' W 122°56'2020.8
2014-Dec-21 18:24N 46°12' W 123°23'432530.0
2014-Dec-21 18:22N 45°37' W 122°48'294914.2
2014-Dec-21 18:22N 46°05' W 122°56'2932.1
2014-Dec-21 17:28N 45°37' W 122°48'294690.8
2014-Dec-21 17:28N 46°05' W 122°56'20779.6
2014-Dec-21 17:27N 46°12' W 123°23'49250.2
2014-Dec-21 17:15N 45°33' W 122°42'6 8.1
2014-Dec-21 16:32N 45°37' W 122°48'29505.9
2014-Dec-21 16:28N 46°05' W 122°56'2054.2
2014-Dec-21 16:06N 46°12' W 123°23'4369.4
2014-Dec-21 15:28N 45°37' W 122°48'29184.6
2014-Dec-21 15:19N 46°05' W 122°56'20264.6
2014-Dec-21 15:15N 46°12' W 123°23'2028.1
2014-Dec-21 14:31N 46°05' W 122°56'29661.5
2014-Dec-21 14:29N 45°37' W 122°48'617.9
2014-Dec-21 14:09N 45°33' W 122°42'496734.2
2014-Dec-21 14:08N 46°12' W 123°23'4369.7
2014-Dec-21 13:32N 45°37' W 122°48'431244.8
2014-Dec-21 13:30N 46°12' W 123°23'20165.4
2014-Dec-21 13:22N 46°05' W 122°56'0 0.0
2014-Dec-21 12:31N 46°05' W 122°56'29661.5
2014-Dec-21 12:29N 45°37' W 122°48'43318.9
2014-Dec-21 12:20N 46°12' W 123°23'4349.5
2014-Dec-21 11:29N 45°37' W 122°48'294300.8
2014-Dec-21 11:28N 46°05' W 122°56'20115.4
2014-Dec-21 11:18N 46°12' W 123°23'4356.0
2014-Dec-21 10:32N 45°37' W 122°48'293559.3
2014-Dec-21 10:31N 46°05' W 122°56'20788.0
2014-Dec-21 10:30N 46°12' W 123°23'0 0.0
2014-Dec-21 09:30N 46°12' W 123°23'432615.8
2014-Dec-21 09:29N 45°37' W 122°48'29111.3
2014-Dec-21 09:13N 46°05' W 122°56'0 0.0
2014-Dec-21 08:31N 46°05' W 122°56'29692.6
2014-Dec-21 08:29N 45°37' W 122°48'43511.0
2014-Dec-21 08:24N 46°12' W 123°23'2022.0
2014-Dec-21 07:28N 46°05' W 122°56'29665.8
2014-Dec-21 07:26N 45°37' W 122°48'43128.5
2014-Dec-21 07:06N 46°12' W 123°23'4375.8
2014-Dec-21 06:32N 45°37' W 122°48'29486.9
2014-Dec-21 06:28N 46°05' W 122°56'20161.4
2014-Dec-21 06:21N 46°12' W 123°23'4349.6
2014-Dec-21 05:29N 45°37' W 122°48'293559.3
2014-Dec-21 05:28N 46°05' W 122°56'20160.7
2014-Dec-21 05:21N 46°12' W 123°23'4352.6
2014-Dec-21 04:32N 45°37' W 122°48'431224.9
2014-Dec-21 04:30N 46°12' W 123°23'2063.0
2014-Dec-21 04:10N 46°05' W 122°56'2032.5
2014-Dec-21 03:33N 46°12' W 123°23'432912.3
2014-Dec-21 03:32N 45°37' W 122°48'293440.7
2014-Dec-21 03:31N 46°05' W 122°56'2020.8
2014-Dec-21 02:33N 46°12' W 123°23'43653.9
2014-Dec-21 02:29N 45°37' W 122°48'293558.6
2014-Dec-21 02:28N 46°05' W 122°56'34198.2
2014-Dec-21 02:18N 45°33' W 122°42'6 7.1
2014-Dec-21 01:29N 45°37' W 122°48'293127.2
2014-Dec-21 01:28N 46°05' W 122°56'20157.6
2014-Dec-21 01:20N 46°12' W 123°23'49346.7
2014-Dec-21 01:12N 45°33' W 122°42'4973.6
2014-Dec-21 00:32N 46°12' W 123°23'433957.7
2014-Dec-21 00:32N 45°37' W 122°48'293225.0
2014-Dec-21 00:31N 46°05' W 122°56'34480.7
2014-Dec-21 00:27N 45°33' W 122°42'0 0.0
2014-Dec-20 23:33N 45°33' W 122°42'341111.1
2014-Dec-20 23:31N 46°05' W 122°56'20678.6
2014-Dec-20 23:29N 46°12' W 123°23'43388.8
2014-Dec-20 23:23N 45°37' W 122°48'0 0.0
2014-Dec-20 22:32N 45°37' W 122°48'29484.6
2014-Dec-20 22:28N 46°05' W 122°56'0 0.0
2014-Dec-20 21:28N 46°05' W 122°56'20660.2
2014-Dec-20 21:26N 46°12' W 123°23'43267.5
2014-Dec-20 21:17N 45°37' W 122°48'4358.0
2014-Dec-20 20:32N 46°12' W 123°23'201003.9
2014-Dec-20 20:31N 46°05' W 122°56'29702.0
2014-Dec-20 20:29N 45°37' W 122°48'4345.7
2014-Dec-20 19:32N 46°12' W 123°23'43711.2
2014-Dec-20 19:29N 45°37' W 122°48'29259.9
2014-Dec-20 19:22N 46°05' W 122°56'0 0.0
2014-Dec-20 18:31N 46°05' W 122°56'29702.2
2014-Dec-20 18:29N 45°37' W 122°48'43477.9
2014-Dec-20 18:23N 46°12' W 123°23'0 0.0
2014-Dec-20 17:26N 46°12' W 123°23'43721.2
2014-Dec-20 17:23N 45°37' W 122°48'292715.7
2014-Dec-20 17:22N 46°05' W 122°56'2024.5
2014-Dec-20 16:32N 46°12' W 123°23'20170.0
2014-Dec-20 16:25N 46°05' W 122°56'29731.9
2014-Dec-20 16:23N 45°37' W 122°48'4351.0
2014-Dec-20 15:32N 46°12' W 123°23'43724.6
2014-Dec-20 15:29N 45°37' W 122°48'292715.7
2014-Dec-20 15:28N 46°05' W 122°56'2930.5
2014-Dec-20 14:32N 45°37' W 122°48'43474.9
2014-Dec-20 14:26N 46°12' W 123°23'20119.7
2014-Dec-20 14:16N 46°05' W 122°56'2027.9
2014-Dec-20 13:32N 46°12' W 123°23'20292.0
2014-Dec-20 13:28N 46°05' W 122°56'29732.1
2014-Dec-20 13:26N 45°37' W 122°48'0 0.0
2014-Dec-20 12:32N 45°37' W 122°48'29475.7
2014-Dec-20 12:28N 46°05' W 122°56'20252.7
2014-Dec-20 12:23N 46°12' W 123°23'2023.4
2014-Dec-20 11:31N 46°05' W 122°56'29322.6
2014-Dec-20 11:26N 45°37' W 122°48'431035.9
2014-Dec-20 11:23N 46°12' W 123°23'4349.9
2014-Dec-20 10:32N 45°37' W 122°48'292867.2
2014-Dec-20 10:31N 46°05' W 122°56'20648.5
2014-Dec-20 10:29N 46°12' W 123°23'4948.7
2014-Dec-20 09:29N 45°33' W 122°42'49931.4
2014-Dec-20 09:26N 46°12' W 123°23'435321.8
2014-Dec-20 09:26N 45°37' W 122°48'29178.9
2014-Dec-20 09:16N 46°05' W 122°56'2027.8
2014-Dec-20 08:32N 46°12' W 123°23'434978.4
2014-Dec-20 08:32N 45°37' W 122°48'292580.0
2014-Dec-20 08:31N 46°05' W 122°56'2020.8
2014-Dec-20 07:32N 46°12' W 123°23'20296.7
2014-Dec-20 07:28N 46°05' W 122°56'34261.6
2014-Dec-20 07:20N 45°33' W 122°42'6585.9
2014-Dec-20 07:20N 45°37' W 122°48'4354.1
2014-Dec-20 06:32N 46°12' W 123°23'436174.0
2014-Dec-20 06:32N 45°37' W 122°48'29460.8
2014-Dec-20 06:28N 46°05' W 122°56'2021.9
2014-Dec-20 05:32N 46°12' W 123°23'435936.5
2014-Dec-20 05:32N 45°37' W 122°48'29460.8
2014-Dec-20 05:28N 46°05' W 122°56'2930.6
2014-Dec-20 04:32N 45°37' W 122°48'292400.5
2014-Dec-20 04:31N 46°05' W 122°56'20253.6
2014-Dec-20 04:26N 46°12' W 123°23'0 0.0
2014-Dec-20 03:32N 46°12' W 123°23'43749.2
2014-Dec-20 03:29N 45°37' W 122°48'29456.6
2014-Dec-20 03:25N 46°05' W 122°56'0 0.0
2014-Dec-20 02:31N 46°05' W 122°56'29775.9
2014-Dec-20 02:29N 45°37' W 122°48'43970.6
2014-Dec-20 02:26N 46°12' W 123°23'4344.8
2014-Dec-20 01:29N 45°37' W 122°48'292150.0
2014-Dec-20 01:28N 46°05' W 122°56'20678.6
2014-Dec-20 01:26N 46°12' W 123°23'0 0.0
2014-Dec-20 00:32N 46°12' W 123°23'20296.7
2014-Dec-20 00:28N 46°05' W 122°56'29326.6
2014-Dec-20 00:23N 45°37' W 122°48'4350.9
2014-Dec-19 23:32N 46°12' W 123°23'201046.9
2014-Dec-19 23:31N 46°05' W 122°56'29782.0
2014-Dec-19 23:29N 45°37' W 122°48'2928.3
2014-Dec-19 22:28N 46°05' W 122°56'20251.8
2014-Dec-19 22:23N 46°12' W 123°23'435936.5
2014-Dec-19 22:23N 45°37' W 122°48'641.4
2014-Dec-19 22:14N 45°33' W 122°42'3443.6
2014-Dec-19 21:28N 46°05' W 122°56'20642.9
2014-Dec-19 21:26N 46°12' W 123°23'43775.5
2014-Dec-19 21:23N 45°37' W 122°48'4347.9
2014-Dec-19 20:29N 46°12' W 123°23'20172.4
2014-Dec-19 20:22N 46°05' W 122°56'29326.6
2014-Dec-19 20:17N 45°37' W 122°48'4357.7
2014-Dec-19 19:32N 46°12' W 123°23'201046.9
2014-Dec-19 19:31N 46°05' W 122°56'29770.1
2014-Dec-19 19:29N 45°37' W 122°48'4345.4
2014-Dec-19 18:32N 46°12' W 123°23'437350.0
2014-Dec-19 18:32N 45°37' W 122°48'29175.8
2014-Dec-19 18:22N 46°05' W 122°56'2024.5
2014-Dec-19 17:32N 46°12' W 123°23'436431.2
2014-Dec-19 17:32N 45°37' W 122°48'292064.4
2014-Dec-19 17:31N 46°05' W 122°56'2020.8
2014-Dec-19 16:32N 46°12' W 123°23'43779.5
2014-Dec-19 16:29N 45°37' W 122°48'292064.0
2014-Dec-19 16:28N 46°05' W 122°56'34147.2
2014-Dec-19 16:14N 45°33' W 122°42'4969.2
2014-Dec-19 15:32N 46°12' W 123°23'201077.7
2014-Dec-19 15:31N 46°05' W 122°56'29787.8
2014-Dec-19 15:29N 45°37' W 122°48'6 6.2
2014-Dec-19 14:32N 45°33' W 122°42'4935021.6
2014-Dec-19 14:32N 46°12' W 123°23'437716.6
2014-Dec-19 14:32N 45°37' W 122°48'292064.0
2014-Dec-19 14:31N 46°05' W 122°56'2020.8
2014-Dec-19 13:32N 46°12' W 123°23'43405.1
2014-Dec-19 13:26N 45°37' W 122°48'29134.1
2014-Dec-19 13:13N 46°05' W 122°56'3449.6
2014-Dec-19 12:32N 45°33' W 122°42'4919454.5
2014-Dec-19 12:32N 46°12' W 123°23'43779.5
2014-Dec-19 12:29N 45°37' W 122°48'292106.5
2014-Dec-19 12:28N 46°05' W 122°56'3436.2
2014-Dec-19 11:32N 45°33' W 122°42'6878.8
2014-Dec-19 11:32N 45°37' W 122°48'29441.1
2014-Dec-19 11:28N 46°05' W 122°56'20112.9
2014-Dec-19 11:17N 46°12' W 123°23'4356.7
2014-Dec-19 10:32N 45°37' W 122°48'29446.8
2014-Dec-19 10:28N 46°05' W 122°56'341175.8
2014-Dec-19 10:26N 45°33' W 122°42'4921888.5
2014-Dec-19 10:26N 46°12' W 123°23'4954.2
2014-Dec-19 09:32N 45°33' W 122°42'4921888.5
2014-Dec-19 09:32N 46°12' W 123°23'4310288.8
2014-Dec-19 09:32N 45°37' W 122°48'291911.1
2014-Dec-19 09:31N 46°05' W 122°56'2020.8
2014-Dec-19 08:32N 46°12' W 123°23'20296.7
2014-Dec-19 08:28N 46°05' W 122°56'29806.2
2014-Dec-19 08:26N 45°37' W 122°48'4347.8
2014-Dec-19 07:32N 46°12' W 123°23'201077.7
2014-Dec-19 07:31N 46°05' W 122°56'29825.6
2014-Dec-19 07:29N 45°37' W 122°48'4345.3
2014-Dec-19 06:32N 46°12' W 123°23'201093.8
2014-Dec-19 06:31N 46°05' W 122°56'29212.3
2014-Dec-19 06:23N 45°37' W 122°48'640.8
2014-Dec-19 06:14N 45°33' W 122°42'4969.2
2014-Dec-19 05:32N 46°12' W 123°23'43799.7
2014-Dec-19 05:29N 45°37' W 122°48'291876.7
2014-Dec-19 05:28N 46°05' W 122°56'341176.0
2014-Dec-19 05:26N 45°33' W 122°42'4953.9
2014-Dec-19 04:32N 46°12' W 123°23'201062.2
2014-Dec-19 04:31N 46°05' W 122°56'341175.8
2014-Dec-19 04:29N 45°33' W 122°42'655.2
2014-Dec-19 04:23N 45°37' W 122°48'2933.2
2014-Dec-19 03:31N 46°05' W 122°56'29337.2
2014-Dec-19 03:26N 45°37' W 122°48'43447.4
2014-Dec-19 03:20N 46°12' W 123°23'49195.7
2014-Dec-19 03:05N 45°33' W 122°42'610.5
2014-Dec-19 02:32N 45°37' W 122°48'291842.8
2014-Dec-19 02:31N 46°05' W 122°56'341164.7
2014-Dec-19 02:29N 45°33' W 122°42'49138.1
2014-Dec-19 02:08N 46°12' W 123°23'2030.4
2014-Dec-19 01:28N 46°05' W 122°56'341223.5
2014-Dec-19 01:26N 45°33' W 122°42'4929184.7
2014-Dec-19 01:26N 46°12' W 123°23'43783.4
2014-Dec-19 01:23N 45°37' W 122°48'4350.7
2014-Dec-19 00:32N 46°12' W 123°23'201062.1
2014-Dec-19 00:31N 46°05' W 122°56'29852.9
2014-Dec-19 00:29N 45°37' W 122°48'640.4
2014-Dec-19 00:20N 45°33' W 122°42'4960.6
2014-Dec-18 23:32N 46°12' W 123°23'4314031.8
2014-Dec-18 23:32N 45°37' W 122°48'291843.2
2014-Dec-18 23:31N 46°05' W 122°56'3488.7
2014-Dec-18 23:08N 45°33' W 122°42'6 9.7
2014-Dec-18 22:32N 45°37' W 122°48'43439.7
2014-Dec-18 22:26N 46°12' W 123°23'201062.1
2014-Dec-18 22:25N 46°05' W 122°56'2023.1
2014-Dec-18 21:32N 46°12' W 123°23'20290.8
2014-Dec-18 21:28N 46°05' W 122°56'29344.0
2014-Dec-18 21:23N 45°37' W 122°48'6 6.9
2014-Dec-18 20:32N 45°33' W 122°42'4917510.8
2014-Dec-18 20:32N 46°12' W 123°23'20290.8
2014-Dec-18 20:28N 46°05' W 122°56'29348.6
2014-Dec-18 20:23N 45°37' W 122°48'4350.6
2014-Dec-18 19:32N 46°12' W 123°23'4315433.2
2014-Dec-18 19:32N 45°37' W 122°48'291720.0
2014-Dec-18 19:31N 46°05' W 122°56'34102.2
2014-Dec-18 19:11N 45°33' W 122°42'3446.7
2014-Dec-18 18:28N 46°05' W 122°56'29874.7
2014-Dec-18 18:26N 45°37' W 122°48'6128.6
2014-Dec-18 18:23N 45°33' W 122°42'49478.4
2014-Dec-18 18:17N 46°12' W 123°23'0 0.0
2014-Dec-18 17:32N 46°12' W 123°23'4325721.9
2014-Dec-18 17:32N 45°37' W 122°48'291691.8
2014-Dec-18 17:31N 46°05' W 122°56'34261.6
2014-Dec-18 17:23N 45°33' W 122°42'6 6.9
2014-Dec-18 16:32N 45°37' W 122°48'291664.5
2014-Dec-18 16:31N 46°05' W 122°56'20251.8
2014-Dec-18 16:26N 46°12' W 123°23'491030.0
2014-Dec-18 16:23N 45°33' W 122°42'4957.0
2014-Dec-18 15:32N 46°12' W 123°23'201093.8
2014-Dec-18 15:31N 46°05' W 122°56'341153.6
2014-Dec-18 15:29N 45°33' W 122°42'6108.8
2014-Dec-18 15:26N 45°37' W 122°48'0 0.0
2014-Dec-18 14:32N 45°37' W 122°48'6126.3
2014-Dec-18 14:29N 45°33' W 122°42'341615.0
2014-Dec-18 14:28N 46°05' W 122°56'20654.4
2014-Dec-18 14:26N 46°12' W 123°23'4951.3
2014-Dec-18 13:29N 45°33' W 122°42'4925015.4
2014-Dec-18 13:29N 46°12' W 123°23'4322049.9
2014-Dec-18 13:29N 45°37' W 122°48'291588.0
2014-Dec-18 13:28N 46°05' W 122°56'3436.3
2014-Dec-18 12:32N 45°33' W 122°42'4921888.5
2014-Dec-18 12:32N 46°12' W 123°23'20294.3
2014-Dec-18 12:28N 46°05' W 122°56'29348.7
2014-Dec-18 12:23N 45°37' W 122°48'4350.5
2014-Dec-18 11:32N 46°12' W 123°23'491000.6
2014-Dec-18 11:29N 45°33' W 122°42'341659.3
2014-Dec-18 11:28N 46°05' W 122°56'29156.9
2014-Dec-18 11:17N 45°37' W 122°48'6 7.9
2014-Dec-18 10:32N 45°33' W 122°42'61757.6
2014-Dec-18 10:32N 45°37' W 122°48'43433.6
2014-Dec-18 10:26N 46°12' W 123°23'201032.2
2014-Dec-18 10:25N 46°05' W 122°56'2023.1
2014-Dec-18 09:32N 46°12' W 123°23'43154331.6
2014-Dec-18 09:32N 45°37' W 122°48'291453.5
2014-Dec-18 09:31N 46°05' W 122°56'34146.8
2014-Dec-18 09:17N 45°33' W 122°42'4964.7
2014-Dec-18 08:32N 46°12' W 123°23'4351443.9
2014-Dec-18 08:32N 45°37' W 122°48'6124.9
2014-Dec-18 08:29N 45°33' W 122°42'34277.2
2014-Dec-18 08:22N 46°05' W 122°56'3438.3
2014-Dec-18 07:29N 45°33' W 122°42'4929184.7
2014-Dec-18 07:29N 46°12' W 123°23'20170.8
2014-Dec-18 07:22N 46°05' W 122°56'29905.4
2014-Dec-18 07:20N 45°37' W 122°48'4353.7
2014-Dec-18 06:32N 46°12' W 123°23'43829.7
2014-Dec-18 06:29N 45°37' W 122°48'291638.1
2014-Dec-18 06:28N 46°05' W 122°56'3436.2
2014-Dec-18 05:32N 45°33' W 122°42'49936.4
2014-Dec-18 05:29N 46°12' W 123°23'4351449.8
2014-Dec-18 05:29N 45°37' W 122°48'291474.6
2014-Dec-18 05:28N 46°05' W 122°56'2929.2
2014-Dec-18 04:29N 45°37' W 122°48'29416.1
2014-Dec-18 04:25N 46°05' W 122°56'34261.0
2014-Dec-18 04:17N 45°33' W 122°42'4921888.5
2014-Dec-18 04:17N 46°12' W 123°23'2026.5
2014-Dec-18 03:31N 46°05' W 122°56'341142.5
2014-Dec-18 03:29N 45°33' W 122°42'4935021.6
2014-Dec-18 03:29N 46°12' W 123°23'43154349.3
2014-Dec-18 03:29N 45°37' W 122°48'4340.8
2014-Dec-18 02:26N 46°12' W 123°23'20120.3
2014-Dec-18 02:16N 46°05' W 122°56'34189.0
2014-Dec-18 02:05N 45°33' W 122°42'0 0.0
2014-Dec-18 01:29N 45°33' W 122°42'64218.1
2014-Dec-18 01:29N 45°37' W 122°48'43848.0
2014-Dec-18 01:26N 46°12' W 123°23'201093.8
2014-Dec-18 01:25N 46°05' W 122°56'2023.1
2014-Dec-18 00:32N 46°12' W 123°23'201062.1
2014-Dec-18 00:31N 46°05' W 122°56'29929.7
2014-Dec-18 00:29N 45°37' W 122°48'2929.6
2014-Dec-17 23:31N 46°05' W 122°56'341187.5
2014-Dec-17 23:29N 45°33' W 122°42'4935021.6
2014-Dec-17 23:29N 46°12' W 123°23'43425.2
2014-Dec-17 23:23N 45°37' W 122°48'0 0.0
2014-Dec-17 22:32N 45°37' W 122°48'4377174.7
2014-Dec-17 22:32N 46°12' W 123°23'491018.1
2014-Dec-17 22:29N 45°33' W 122°42'341593.8
2014-Dec-17 22:28N 46°05' W 122°56'0 0.0
2014-Dec-17 21:31N 46°05' W 122°56'341176.0
2014-Dec-17 21:29N 45°33' W 122°42'610552.9
2014-Dec-17 21:29N 45°37' W 122°48'4351443.9
2014-Dec-17 21:29N 46°12' W 123°23'2021.0
2014-Dec-17 20:31N 46°05' W 122°56'20678.6
2014-Dec-17 20:29N 46°12' W 123°23'43214.3
2014-Dec-17 20:17N 45°37' W 122°48'4357.1
2014-Dec-17 19:32N 46°12' W 123°23'43437.2
2014-Dec-17 19:26N 45°37' W 122°48'29401.6
2014-Dec-17 19:22N 46°05' W 122°56'34262.2
2014-Dec-17 19:14N 45°33' W 122°42'6 7.8
2014-Dec-17 18:29N 45°37' W 122°48'43821.0
2014-Dec-17 18:26N 46°12' W 123°23'201062.1
2014-Dec-17 18:25N 46°05' W 122°56'2932.6
2014-Dec-17 17:32N 45°37' W 122°48'43834.2
2014-Dec-17 17:29N 46°12' W 123°23'20170.8
2014-Dec-17 17:22N 46°05' W 122°56'34260.5
2014-Dec-17 17:14N 45°33' W 122°42'4969.3
2014-Dec-17 16:32N 46°12' W 123°23'201093.8
2014-Dec-17 16:31N 46°05' W 122°56'341142.7
2014-Dec-17 16:29N 45°33' W 122°42'629.4
2014-Dec-17 16:17N 45°37' W 122°48'4357.0
2014-Dec-17 15:32N 46°12' W 123°23'491012.2
2014-Dec-17 15:29N 45°33' W 122°42'341615.0
2014-Dec-17 15:28N 46°05' W 122°56'29973.6
2014-Dec-17 15:26N 45°37' W 122°48'4347.6
2014-Dec-17 14:32N 46°12' W 123°23'49989.3
2014-Dec-17 14:29N 45°33' W 122°42'341615.0
2014-Dec-17 14:28N 46°05' W 122°56'2929.3
2014-Dec-17 13:29N 45°37' W 122°48'4377174.7
2014-Dec-17 13:29N 46°12' W 123°23'201017.9
2014-Dec-17 13:28N 46°05' W 122°56'3488.9
2014-Dec-17 13:05N 45°33' W 122°42'610.7
2014-Dec-17 12:32N 45°37' W 122°48'4322049.9
2014-Dec-17 12:32N 46°12' W 123°23'20293.2
2014-Dec-17 12:28N 46°05' W 122°56'34188.7
2014-Dec-17 12:17N 45°33' W 122°42'4964.6
2014-Dec-17 11:32N 46°12' W 123°23'201077.7
2014-Dec-17 11:31N 46°05' W 122°56'29364.7
2014-Dec-17 11:26N 45°37' W 122°48'623.4
2014-Dec-17 11:11N 45°33' W 122°42'4974.6
2014-Dec-17 10:32N 46°12' W 123°23'43907.9
2014-Dec-17 10:29N 45°37' W 122°48'610552.9
2014-Dec-17 10:29N 45°33' W 122°42'34196.3
2014-Dec-17 10:19N 46°05' W 122°56'0 0.0
2014-Dec-17 09:31N 46°05' W 122°56'20654.3
2014-Dec-17 09:29N 46°12' W 123°23'49496.1
2014-Dec-17 09:23N 45°33' W 122°42'6119.2
2014-Dec-17 09:20N 45°37' W 122°48'0 0.0
2014-Dec-17 08:32N 45°37' W 122°48'4315433.2
2014-Dec-17 08:32N 46°12' W 123°23'20747.8
2014-Dec-17 08:31N 46°05' W 122°56'34277.8
2014-Dec-17 08:23N 45°33' W 122°42'4957.1
2014-Dec-17 07:32N 46°12' W 123°23'20755.5
2014-Dec-17 07:31N 46°05' W 122°56'291474.6
2014-Dec-17 07:29N 45°37' W 122°48'65272.7
2014-Dec-17 07:29N 45°33' W 122°42'6 6.2
2014-Dec-17 06:32N 45°37' W 122°48'65276.5
2014-Dec-17 06:32N 45°33' W 122°42'4917510.8
2014-Dec-17 06:32N 46°12' W 123°23'20160.4
2014-Dec-17 06:25N 46°05' W 122°56'2023.4
2014-Dec-17 05:32N 46°12' W 123°23'20718.5
2014-Dec-17 05:31N 46°05' W 122°56'29240.6
2014-Dec-17 05:23N 45°37' W 122°48'657.6
2014-Dec-17 05:17N 45°33' W 122°42'3443.2
2014-Dec-17 04:31N 46°05' W 122°56'291474.3
2014-Dec-17 04:29N 45°37' W 122°48'4312861.0
2014-Dec-17 04:29N 46°12' W 123°23'49245.9
2014-Dec-17 04:17N 45°33' W 122°42'6 7.8
2014-Dec-17 03:33N 45°37' W 122°48'4311023.7
2014-Dec-17 03:32N 46°12' W 123°23'20755.5
2014-Dec-17 03:31N 46°05' W 122°56'34279.1
2014-Dec-17 03:23N 45°33' W 122°42'4957.1
2014-Dec-17 02:32N 46°12' W 123°23'20755.5
2014-Dec-17 02:31N 46°05' W 122°56'291540.3
2014-Dec-17 02:30N 45°37' W 122°48'63517.6
2014-Dec-17 02:29N 45°33' W 122°42'0 0.0
2014-Dec-17 01:32N 45°33' W 122°42'6120.6
2014-Dec-17 01:29N 45°37' W 122°48'43417.1
2014-Dec-17 01:23N 46°12' W 123°23'20264.6
2014-Dec-17 01:19N 46°05' W 122°56'2937.2
2014-Dec-17 00:33N 45°37' W 122°48'4311023.7
2014-Dec-17 00:32N 46°12' W 123°23'20262.7
2014-Dec-17 00:28N 46°05' W 122°56'2931.2
2014-Dec-16 23:33N 45°37' W 122°48'6111.7
2014-Dec-16 23:29N 45°33' W 122°42'4943777.0
2014-Dec-16 23:29N 46°12' W 123°23'20159.3
2014-Dec-16 23:22N 46°05' W 122°56'0 0.0
2014-Dec-16 22:31N 46°05' W 122°56'20207.6
2014-Dec-16 22:25N 46°12' W 123°23'432114.4
2014-Dec-16 22:24N 45°37' W 122°48'629.0
2014-Dec-16 22:11N 45°33' W 122°42'6 9.1
2014-Dec-16 21:33N 45°37' W 122°48'29349.8
2014-Dec-16 21:28N 46°05' W 122°56'20137.8
2014-Dec-16 21:19N 46°12' W 123°23'0 0.0
2014-Dec-16 20:31N 46°12' W 123°23'205637.4
2014-Dec-16 20:31N 46°05' W 122°56'29244.0
2014-Dec-16 20:24N 45°37' W 122°48'4350.6
2014-Dec-16 19:33N 46°12' W 123°23'4311871.7
2014-Dec-16 19:33N 45°37' W 122°48'29889.6
2014-Dec-16 19:31N 46°05' W 122°56'34124.9
2014-Dec-16 19:14N 45°33' W 122°42'4965.5
2014-Dec-16 18:30N 46°12' W 123°23'43771.7
2014-Dec-16 18:27N 45°37' W 122°48'29889.8
2014-Dec-16 18:25N 46°05' W 122°56'0 0.0
2014-Dec-16 17:31N 46°05' W 122°56'201465.7
2014-Dec-16 17:30N 46°12' W 123°23'4310288.8
2014-Dec-16 17:30N 45°37' W 122°48'0 0.0
2014-Dec-16 16:33N 45°37' W 122°48'43447.3
2014-Dec-16 16:27N 46°12' W 123°23'20572.5
2014-Dec-16 16:25N 46°05' W 122°56'0 0.0
2014-Dec-16 15:28N 46°05' W 122°56'29430.0
2014-Dec-16 15:24N 45°37' W 122°48'43892.1
2014-Dec-16 15:21N 46°12' W 123°23'4353.4
2014-Dec-16 14:33N 45°37' W 122°48'29860.2
2014-Dec-16 14:31N 46°05' W 122°56'20325.7
2014-Dec-16 14:27N 46°12' W 123°23'49829.9
2014-Dec-16 14:23N 45°33' W 122°42'6 6.9
2014-Dec-16 13:33N 45°37' W 122°48'6107.7
2014-Dec-16 13:29N 45°33' W 122°42'491159.7
2014-Dec-16 13:27N 46°12' W 123°23'20551.0
2014-Dec-16 13:25N 46°05' W 122°56'2022.3
2014-Dec-16 12:30N 46°12' W 123°23'4314030.1
2014-Dec-16 12:30N 45°37' W 122°48'29255.4
2014-Dec-16 12:23N 46°05' W 122°56'34176.3
2014-Dec-16 12:11N 45°33' W 122°42'4970.1
2014-Dec-16 11:30N 46°12' W 123°23'4315433.2
2014-Dec-16 11:30N 45°37' W 122°48'29726.7
2014-Dec-16 11:27N 46°05' W 122°56'34127.1
2014-Dec-16 11:11N 45°33' W 122°42'3452.9
2014-Dec-16 10:33N 46°05' W 122°56'202818.7
2014-Dec-16 10:33N 46°12' W 123°23'43803.8
2014-Dec-16 10:30N 45°37' W 122°48'0 0.0
2014-Dec-16 09:33N 45°37' W 122°48'43438.4
2014-Dec-16 09:27N 46°12' W 123°23'20143.7
2014-Dec-16 09:18N 46°05' W 122°56'2026.9
2014-Dec-16 08:33N 46°12' W 123°23'20218.1
2014-Dec-16 08:27N 46°05' W 122°56'29473.4
2014-Dec-16 08:24N 45°37' W 122°48'4350.6
2014-Dec-16 07:33N 46°12' W 123°23'43419.4
2014-Dec-16 07:27N 45°37' W 122°48'29319.5
2014-Dec-16 07:21N 46°05' W 122°56'0 0.0
2014-Dec-16 06:33N 46°05' W 122°56'202527.1
2014-Dec-16 06:33N 46°12' W 123°23'43285.3
2014-Dec-16 06:24N 45°37' W 122°48'4350.6
2014-Dec-16 05:33N 46°12' W 123°23'4351443.9
2014-Dec-16 05:33N 45°37' W 122°48'29711.7
2014-Dec-16 05:30N 46°05' W 122°56'2021.3
2014-Dec-16 04:33N 46°12' W 123°23'20105.0
2014-Dec-16 04:21N 46°05' W 122°56'293685.7
2014-Dec-16 04:21N 45°37' W 122°48'651.6
2014-Dec-16 04:14N 45°33' W 122°42'3443.1
2014-Dec-16 03:27N 46°05' W 122°56'20364.6
2014-Dec-16 03:24N 46°12' W 123°23'4351449.8
2014-Dec-16 03:24N 45°37' W 122°48'4350.5
2014-Dec-16 02:33N 46°12' W 123°23'43783.4
2014-Dec-16 02:30N 45°37' W 122°48'29260.6
2014-Dec-16 02:23N 46°05' W 122°56'34179.7
2014-Dec-16 02:12N 45°33' W 122°42'4953.4
2014-Dec-16 01:17N 46°12' W 123°23'20111.2
2014-Dec-16 01:06N 46°05' W 122°56'0 0.0
2014-Dec-15 23:33N 46°05' W 122°56'202442.9
2014-Dec-15 23:33N 46°12' W 123°23'43171.1
2014-Dec-15 23:18N 45°37' W 122°48'655.5
2014-Dec-15 23:11N 45°33' W 122°42'3453.0
2014-Dec-15 22:33N 46°05' W 122°56'34203.6
2014-Dec-15 22:23N 45°33' W 122°42'491101.3
2014-Dec-15 22:21N 46°12' W 123°23'43867.1
2014-Dec-15 22:18N 45°37' W 122°48'2938.6
2014-Dec-15 21:33N 46°05' W 122°56'293225.0
2014-Dec-15 21:33N 45°37' W 122°48'43431.1
2014-Dec-15 21:27N 46°12' W 123°23'49136.7
2014-Dec-15 21:05N 45°33' W 122°42'3462.8
2014-Dec-15 20:33N 46°05' W 122°56'202527.1
2014-Dec-15 20:33N 46°12' W 123°23'43427.5
2014-Dec-15 20:27N 45°37' W 122°48'616.4
2014-Dec-15 20:05N 45°33' W 122°42'3462.9
2014-Dec-15 19:33N 46°05' W 122°56'20190.8
2014-Dec-15 19:27N 46°12' W 123°23'43283.2
2014-Dec-15 19:18N 45°37' W 122°48'0 0.0
2014-Dec-15 18:33N 45°37' W 122°48'43424.0
2014-Dec-15 18:27N 46°12' W 123°23'20224.1
2014-Dec-15 18:21N 46°05' W 122°56'34203.2
2014-Dec-15 18:11N 45°33' W 122°42'3452.9
2014-Dec-15 17:33N 46°05' W 122°56'29496.1
2014-Dec-15 17:30N 45°37' W 122°48'43867.0
2014-Dec-15 17:27N 46°12' W 123°23'2022.8
2014-Dec-15 16:33N 46°05' W 122°56'293969.2
2014-Dec-15 16:33N 45°37' W 122°48'4351443.9
2014-Dec-15 16:33N 46°12' W 123°23'2020.5
2014-Dec-15 15:33N 46°05' W 122°56'202617.3
2014-Dec-15 15:33N 46°12' W 123°23'49854.2
2014-Dec-15 15:29N 45°33' W 122°42'620.0
2014-Dec-15 15:12N 45°37' W 122°48'2944.6
2014-Dec-15 14:33N 46°05' W 122°56'202617.3
2014-Dec-15 14:33N 46°12' W 123°23'43867.0
2014-Dec-15 14:30N 45°37' W 122°48'654.5
2014-Dec-15 14:23N 45°33' W 122°42'6 7.0
2014-Dec-15 13:33N 45°37' W 122°48'4377174.7
2014-Dec-15 13:33N 46°12' W 123°23'49862.6
2014-Dec-15 13:29N 45°33' W 122°42'34946.3
2014-Dec-15 13:27N 46°05' W 122°56'0 0.0
2014-Dec-15 12:33N 46°05' W 122°56'34582.3
2014-Dec-15 12:29N 45°33' W 122°42'663.0
2014-Dec-15 12:24N 45°37' W 122°48'4350.4
2014-Dec-15 11:33N 46°12' W 123°23'498338.5
2014-Dec-15 11:32N 45°33' W 122°42'34752.3
2014-Dec-15 11:30N 46°05' W 122°56'29144.6
2014-Dec-15 11:18N 45°37' W 122°48'0 0.0
2014-Dec-15 10:33N 45°37' W 122°48'296881.3
2014-Dec-15 10:33N 46°05' W 122°56'20206.5
2014-Dec-15 10:27N 46°12' W 123°23'49854.3
2014-Dec-15 10:23N 45°33' W 122°42'6 7.0
2014-Dec-15 09:33N 45°37' W 122°48'43422.8
2014-Dec-15 09:27N 46°12' W 123°23'20203.0
2014-Dec-15 09:21N 46°05' W 122°56'34614.9
2014-Dec-15 09:17N 45°33' W 122°42'4965.3
2014-Dec-15 08:33N 46°12' W 123°23'2036642.8
2014-Dec-15 08:33N 46°05' W 122°56'29291.5
2014-Dec-15 08:27N 45°37' W 122°48'622.8
2014-Dec-15 08:11N 45°33' W 122°42'6 9.1
2014-Dec-15 07:33N 45°37' W 122°48'29557.8
2014-Dec-15 07:30N 46°05' W 122°56'345266.3
2014-Dec-15 07:29N 45°33' W 122°42'491115.3
2014-Dec-15 07:27N 46°12' W 123°23'4345.2
2014-Dec-15 06:30N 45°37' W 122°48'29279.7
2014-Dec-15 06:24N 46°05' W 122°56'20436.2
2014-Dec-15 06:21N 46°12' W 123°23'4353.6
2014-Dec-15 05:33N 45°37' W 122°48'4319293.7
2014-Dec-15 05:33N 46°12' W 123°23'20404.9
2014-Dec-15 05:30N 46°05' W 122°56'34163.2
2014-Dec-15 05:17N 45°33' W 122°42'6 7.9
2014-Dec-15 04:33N 45°37' W 122°48'2911466.5
2014-Dec-15 04:33N 46°05' W 122°56'20204.1
2014-Dec-15 04:27N 46°12' W 123°23'4347.8
2014-Dec-15 03:33N 45°37' W 122°48'4319291.4
2014-Dec-15 03:33N 46°12' W 123°23'2073285.7
2014-Dec-15 03:33N 46°05' W 122°56'345767.9
2014-Dec-15 03:32N 45°33' W 122°42'6 5.9
2014-Dec-15 02:33N 45°37' W 122°48'29546.0
2014-Dec-15 02:30N 46°05' W 122°56'20137.5
2014-Dec-15 02:21N 46°12' W 123°23'49833.8
2014-Dec-15 02:17N 45°33' W 122°42'6 7.9
2014-Dec-15 01:33N 45°37' W 122°48'2914742.6
2014-Dec-15 01:33N 46°05' W 122°56'2024428.6
2014-Dec-15 01:33N 46°12' W 123°23'0 0.0
2014-Dec-15 00:33N 46°12' W 123°23'20400.5
2014-Dec-15 00:30N 46°05' W 122°56'345767.9
2014-Dec-15 00:29N 45°33' W 122°42'6141.7
2014-Dec-15 00:27N 45°37' W 122°48'0 0.0
2014-Dec-14 23:33N 45°37' W 122°48'29529.3
2014-Dec-14 23:30N 46°05' W 122°56'34317.9
2014-Dec-14 23:23N 45°33' W 122°42'49341.3
2014-Dec-14 23:15N 46°12' W 123°23'0 0.0
2014-Dec-14 22:33N 46°12' W 123°23'2036642.8
2014-Dec-14 22:33N 46°05' W 122°56'29603.6
2014-Dec-14 22:30N 45°37' W 122°48'6602.6
2014-Dec-14 22:29N 45°33' W 122°42'4951.6
2014-Dec-14 21:33N 46°12' W 123°23'2073285.7
2014-Dec-14 21:33N 46°05' W 122°56'29618.0
2014-Dec-14 21:30N 45°37' W 122°48'0 0.0
2014-Dec-14 20:33N 45°37' W 122°48'439078.3
2014-Dec-14 20:33N 46°12' W 123°23'20202.4
2014-Dec-14 20:27N 46°05' W 122°56'2022.7
2014-Dec-14 19:33N 46°12' W 123°23'43887.0
2014-Dec-14 19:30N 45°37' W 122°48'6659.6
2014-Dec-14 19:29N 45°33' W 122°42'34761.8
2014-Dec-14 19:27N 46°05' W 122°56'2022.6
2014-Dec-14 18:33N 46°12' W 123°23'2018321.4
2014-Dec-14 18:33N 46°05' W 122°56'29197.7
2014-Dec-14 18:24N 45°37' W 122°48'627.2
2014-Dec-14 18:11N 45°33' W 122°42'6 9.2
2014-Dec-14 17:33N 45°37' W 122°48'439645.7
2014-Dec-14 17:33N 46°12' W 123°23'20404.9
2014-Dec-14 17:30N 46°05' W 122°56'34160.0
2014-Dec-14 17:17N 45°33' W 122°42'6 8.0
2014-Dec-14 16:33N 45°37' W 122°48'4310288.8
2014-Dec-14 16:33N 46°12' W 123°23'2073285.7
2014-Dec-14 16:33N 46°05' W 122°56'34560.7
2014-Dec-14 16:29N 45°33' W 122°42'4951.8
2014-Dec-14 15:33N 46°12' W 123°23'2012214.3
2014-Dec-14 15:33N 46°05' W 122°56'34558.2
2014-Dec-14 15:29N 45°33' W 122°42'6 6.3
2014-Dec-14 14:33N 45°37' W 122°48'690.5
2014-Dec-14 14:29N 45°33' W 122°42'49548.9
2014-Dec-14 14:24N 46°12' W 123°23'20200.2
2014-Dec-14 14:18N 46°05' W 122°56'2027.2
2014-Dec-14 13:33N 46°12' W 123°23'2018321.4
2014-Dec-14 13:33N 46°05' W 122°56'34560.8
2014-Dec-14 13:29N 45°33' W 122°42'668.7
2014-Dec-14 13:24N 45°37' W 122°48'6 6.8
2014-Dec-14 12:32N 45°33' W 122°42'49537.1
2014-Dec-14 12:27N 46°12' W 123°23'43295.1
2014-Dec-14 12:18N 45°37' W 122°48'29184.9
2014-Dec-14 12:09N 46°05' W 122°56'2034.0
2014-Dec-14 11:33N 46°12' W 123°23'494864.1
2014-Dec-14 11:32N 45°33' W 122°42'6164.8
2014-Dec-14 11:30N 45°37' W 122°48'295161.0
2014-Dec-14 11:30N 46°05' W 122°56'2021.4
2014-Dec-14 10:33N 46°12' W 123°23'43958.7
2014-Dec-14 10:30N 45°37' W 122°48'29518.7
2014-Dec-14 10:27N 46°05' W 122°56'34558.2
2014-Dec-14 10:23N 45°33' W 122°42'4957.9
2014-Dec-14 09:33N 46°12' W 123°23'43952.7
2014-Dec-14 09:30N 45°37' W 122°48'295733.2
2014-Dec-14 09:30N 46°05' W 122°56'2021.4
2014-Dec-14 08:33N 46°12' W 123°23'43174.8
2014-Dec-14 08:18N 45°37' W 122°48'29521.3
2014-Dec-14 08:15N 46°05' W 122°56'2938.5
2014-Dec-14 07:30N 45°37' W 122°48'29516.0
2014-Dec-14 07:27N 46°05' W 122°56'20204.1
2014-Dec-14 07:21N 46°12' W 123°23'2023.9
2014-Dec-14 06:30N 46°05' W 122°56'34563.4
2014-Dec-14 06:26N 45°33' W 122°42'6170.2
2014-Dec-14 06:24N 45°37' W 122°48'43410.5
2014-Dec-14 06:18N 46°12' W 123°23'0 0.0
2014-Dec-14 05:30N 46°12' W 123°23'2012214.3
2014-Dec-14 05:30N 46°05' W 122°56'343364.6
2014-Dec-14 05:29N 45°33' W 122°42'670.1
2014-Dec-14 05:24N 45°37' W 122°48'0 0.0
2014-Dec-14 04:33N 45°37' W 122°48'43407.2
2014-Dec-14 04:27N 46°12' W 123°23'2018321.4
2014-Dec-14 04:27N 46°05' W 122°56'343364.0
2014-Dec-14 04:26N 45°33' W 122°42'6 6.6
2014-Dec-14 03:33N 45°37' W 122°48'438123.7
2014-Dec-14 03:33N 46°12' W 123°23'2018321.4
2014-Dec-14 03:33N 46°05' W 122°56'3482.1
2014-Dec-14 03:08N 45°33' W 122°42'4982.5
2014-Dec-14 02:33N 46°12' W 123°23'2073285.7
2014-Dec-14 02:33N 46°05' W 122°56'343460.7
2014-Dec-14 02:32N 45°33' W 122°42'6173.0
2014-Dec-14 02:30N 45°37' W 122°48'4344.9
2014-Dec-14 01:33N 46°12' W 123°23'20201.3
2014-Dec-14 01:27N 46°05' W 122°56'34305.1
2014-Dec-14 01:20N 45°33' W 122°42'644.0
2014-Dec-14 01:12N 45°37' W 122°48'4365.3
2014-Dec-14 00:33N 46°12' W 123°23'43221.8
2014-Dec-14 00:21N 45°37' W 122°48'29513.5
2014-Dec-14 00:18N 46°05' W 122°56'34550.6
2014-Dec-14 00:14N 45°33' W 122°42'6 8.6
2014-Dec-13 23:33N 45°37' W 122°48'437015.9
2014-Dec-13 23:33N 46°12' W 123°23'20203.0
2014-Dec-13 23:27N 46°05' W 122°56'0 0.0
2014-Dec-13 22:33N 46°05' W 122°56'2018321.4
2014-Dec-13 22:33N 46°12' W 123°23'43146.6
2014-Dec-13 22:15N 45°37' W 122°48'4360.6
2014-Dec-13 21:33N 46°12' W 123°23'20732.9
2014-Dec-13 21:31N 46°05' W 122°56'29248.1
2014-Dec-13 21:24N 45°37' W 122°48'4347.4
2014-Dec-13 20:30N 46°12' W 123°23'49646.2
2014-Dec-13 20:25N 45°33' W 122°42'348651.8
2014-Dec-13 20:25N 46°05' W 122°56'291842.8
2014-Dec-13 20:24N 45°37' W 122°48'0 0.0
2014-Dec-13 19:33N 45°37' W 122°48'29212.0
2014-Dec-13 19:25N 46°05' W 122°56'204310.9
2014-Dec-13 19:25N 46°12' W 123°23'0 0.0
2014-Dec-13 18:33N 46°12' W 123°23'43834.3
2014-Dec-13 18:30N 45°37' W 122°48'29212.0
2014-Dec-13 18:22N 46°05' W 122°56'2025.0
2014-Dec-13 17:33N 46°12' W 123°23'43843.3
2014-Dec-13 17:30N 45°37' W 122°48'2985.4
2014-Dec-13 17:10N 46°05' W 122°56'34729.7
2014-Dec-13 17:07N 45°33' W 122°42'4985.8
2014-Dec-13 16:33N 46°12' W 123°23'20563.7
2014-Dec-13 16:31N 46°05' W 122°56'29133.5
2014-Dec-13 16:18N 45°37' W 122°48'632.3
2014-Dec-13 16:07N 45°33' W 122°42'4985.7
2014-Dec-13 15:33N 46°12' W 123°23'43852.7
2014-Dec-13 15:30N 45°37' W 122°48'29800.0
2014-Dec-13 15:28N 46°05' W 122°56'34725.3
2014-Dec-13 15:25N 45°33' W 122°42'4956.1
2014-Dec-13 14:33N 46°12' W 123°23'43426.3
2014-Dec-13 14:27N 45°37' W 122°48'6185.1
2014-Dec-13 14:25N 45°33' W 122°42'34323.0
2014-Dec-13 14:19N 46°05' W 122°56'2937.5
2014-Dec-13 13:33N 45°37' W 122°48'43154349.4
2014-Dec-13 13:33N 46°12' W 123°23'20568.1
2014-Dec-13 13:31N 46°05' W 122°56'34346.1
2014-Dec-13 13:25N 45°33' W 122°42'4956.1
2014-Dec-13 12:33N 46°12' W 123°23'491459.2
2014-Dec-13 12:31N 45°33' W 122°42'6357.7
2014-Dec-13 12:30N 45°37' W 122°48'29209.8
2014-Dec-13 12:22N 46°05' W 122°56'2933.2
2014-Dec-13 11:30N 45°37' W 122°48'29787.9
2014-Dec-13 11:28N 46°05' W 122°56'20178.7
2014-Dec-13 11:21N 46°12' W 123°23'491471.5
2014-Dec-13 11:19N 45°33' W 122°42'4963.4
2014-Dec-13 10:33N 46°12' W 123°23'491471.5
2014-Dec-13 10:31N 45°33' W 122°42'6340.4
2014-Dec-13 10:30N 45°37' W 122°48'29332.9
2014-Dec-13 10:25N 46°05' W 122°56'2933.2
2014-Dec-13 09:33N 45°37' W 122°48'43154331.6
2014-Dec-13 09:33N 46°12' W 123°23'20568.1
2014-Dec-13 09:31N 46°05' W 122°56'34346.1
2014-Dec-13 09:25N 45°33' W 122°42'6 6.4
2014-Dec-13 08:30N 45°37' W 122°48'43843.4
2014-Dec-13 08:27N 46°12' W 123°23'20149.6
2014-Dec-13 08:19N 46°05' W 122°56'34171.3
2014-Dec-13 08:07N 45°33' W 122°42'610.3
2014-Dec-13 07:33N 45°37' W 122°48'29770.3
2014-Dec-13 07:31N 46°05' W 122°56'20321.4
2014-Dec-13 07:27N 46°12' W 123°23'49365.6
2014-Dec-13 07:19N 45°33' W 122°42'3441.9
2014-Dec-13 06:31N 46°05' W 122°56'201409.3
2014-Dec-13 06:30N 46°12' W 123°23'43431.1
2014-Dec-13 06:24N 45°37' W 122°48'0 0.0
2014-Dec-13 05:33N 45°37' W 122°48'4377174.7
2014-Dec-13 05:33N 46°12' W 123°23'20109.4
2014-Dec-13 05:22N 46°05' W 122°56'2025.0
2014-Dec-13 04:33N 46°12' W 123°23'20572.5
2014-Dec-13 04:31N 46°05' W 122°56'34349.1
2014-Dec-13 04:25N 45°33' W 122°42'635.2
2014-Dec-13 04:15N 45°37' W 122°48'0 0.0
2014-Dec-13 03:33N 45°37' W 122°48'4319291.4
2014-Dec-13 03:33N 46°12' W 123°23'20572.5
2014-Dec-13 03:31N 46°05' W 122°56'2929.8
2014-Dec-13 02:33N 45°37' W 122°48'6170.2
2014-Dec-13 02:31N 45°33' W 122°42'3410093.8
2014-Dec-13 02:31N 46°05' W 122°56'201526.8
2014-Dec-13 02:30N 46°12' W 123°23'0 0.0
2014-Dec-13 01:33N 46°12' W 123°23'20149.0
2014-Dec-13 01:25N 46°05' W 122°56'292293.3
2014-Dec-13 01:24N 45°37' W 122°48'4347.6
2014-Dec-13 00:30N 46°12' W 123°23'49585.6
2014-Dec-13 00:25N 45°33' W 122°42'6357.7
2014-Dec-13 00:24N 45°37' W 122°48'29153.1
2014-Dec-13 00:13N 46°05' W 122°56'2943.3
2014-Dec-12 23:33N 45°37' W 122°48'4330869.9
2014-Dec-12 23:33N 46°12' W 123°23'20234.9
2014-Dec-12 23:28N 46°05' W 122°56'34170.8
2014-Dec-12 23:16N 45°33' W 122°42'6 8.2
2014-Dec-12 22:33N 45°37' W 122°48'4315434.9
2014-Dec-12 22:33N 46°12' W 123°23'20238.7
2014-Dec-12 22:28N 46°05' W 122°56'3484.6
2014-Dec-12 22:04N 45°33' W 122°42'4978.8
2014-Dec-12 21:27N 46°12' W 123°23'20236.4
2014-Dec-12 21:22N 46°05' W 122°56'29464.9
2014-Dec-12 21:18N 45°37' W 122°48'0 0.0
2014-Dec-12 20:33N 45°37' W 122°48'4319291.4
2014-Dec-12 20:33N 46°12' W 123°23'20237.9
2014-Dec-12 20:28N 46°05' W 122°56'2931.4
2014-Dec-12 19:33N 45°37' W 122°48'43210.9
2014-Dec-12 19:21N 46°12' W 123°23'491522.8
2014-Dec-12 19:19N 45°33' W 122°42'34323.0
2014-Dec-12 19:13N 46°05' W 122°56'2943.4
2014-Dec-12 18:33N 45°37' W 122°48'4314030.1
2014-Dec-12 18:33N 46°12' W 123°23'49587.6
2014-Dec-12 18:28N 45°33' W 122°42'341091.2
2014-Dec-12 18:26N 46°05' W 122°56'2023.0
2014-Dec-12 17:33N 46°12' W 123°23'491484.0
2014-Dec-12 17:31N 45°33' W 122°42'34414.8
2014-Dec-12 17:26N 46°05' W 122°56'29860.0
2014-Dec-12 17:24N 45°37' W 122°48'4350.2
2014-Dec-12 16:33N 46°12' W 123°23'201526.8
2014-Dec-12 16:32N 46°05' W 122°56'29344.0
2014-Dec-12 16:27N 45°37' W 122°48'6164.9
2014-Dec-12 16:25N 45°33' W 122°42'4956.1
2014-Dec-12 15:33N 46°12' W 123°23'201559.3
2014-Dec-12 15:32N 46°05' W 122°56'29839.0
2014-Dec-12 15:30N 45°37' W 122°48'631.5
2014-Dec-12 15:19N 45°33' W 122°42'6 7.7
2014-Dec-12 14:33N 45°37' W 122°48'291720.3
2014-Dec-12 14:32N 46°05' W 122°56'20149.9
2014-Dec-12 14:24N 46°12' W 123°23'49583.7
2014-Dec-12 14:19N 45°33' W 122°42'3443.1
2014-Dec-12 13:32N 46°05' W 122°56'20581.6
2014-Dec-12 13:30N 46°12' W 123°23'491412.2
2014-Dec-12 13:28N 45°33' W 122°42'6421.8
2014-Dec-12 13:27N 45°37' W 122°48'4347.5
2014-Dec-12 12:33N 46°12' W 123°23'201526.8
2014-Dec-12 12:32N 46°05' W 122°56'29867.2
2014-Dec-12 12:30N 45°37' W 122°48'6162.4
2014-Dec-12 12:28N 45°33' W 122°42'4950.3
2014-Dec-12 11:30N 46°12' W 123°23'201559.3
2014-Dec-12 11:29N 46°05' W 122°56'341730.1
2014-Dec-12 11:28N 45°33' W 122°42'6430.1
2014-Dec-12 11:27N 45°37' W 122°48'4347.4
2014-Dec-12 10:33N 46°12' W 123°23'201526.8
2014-Dec-12 10:32N 46°05' W 122°56'29882.2
2014-Dec-12 10:30N 45°37' W 122°48'668.0
2014-Dec-12 10:25N 45°33' W 122°42'3436.1
2014-Dec-12 09:29N 46°05' W 122°56'29349.8
2014-Dec-12 09:25N 45°37' W 122°48'43277.1
2014-Dec-12 09:15N 46°12' W 123°23'2028.5
2014-Dec-12 08:32N 46°05' W 122°56'29882.0
2014-Dec-12 08:30N 45°37' W 122°48'6163.6
2014-Dec-12 08:28N 45°33' W 122°42'49181.7
2014-Dec-12 08:12N 46°12' W 123°23'2030.7
2014-Dec-12 07:32N 46°05' W 122°56'29348.6
2014-Dec-12 07:28N 45°37' W 122°48'4311871.7
2014-Dec-12 07:27N 46°12' W 123°23'49171.5
2014-Dec-12 07:10N 45°33' W 122°42'0 0.0
2014-Dec-12 06:28N 45°33' W 122°42'341053.3
2014-Dec-12 06:26N 46°05' W 122°56'29889.8
2014-Dec-12 06:25N 45°37' W 122°48'43791.5
2014-Dec-12 06:21N 46°12' W 123°23'0 0.0
2014-Dec-12 05:33N 46°12' W 123°23'201526.8
2014-Dec-12 05:32N 46°05' W 122°56'29889.6
2014-Dec-12 05:31N 45°37' W 122°48'617.4
2014-Dec-12 05:10N 45°33' W 122°42'6 8.9
2014-Dec-12 04:31N 45°37' W 122°48'4311025.0
2014-Dec-12 04:30N 46°12' W 123°23'201357.1
2014-Dec-12 04:29N 46°05' W 122°56'341755.4
2014-Dec-12 04:28N 45°33' W 122°42'4953.0
2014-Dec-12 03:33N 46°12' W 123°23'201495.6
2014-Dec-12 03:32N 46°05' W 122°56'29913.3
2014-Dec-12 03:31N 45°37' W 122°48'6155.2
2014-Dec-12 03:28N 45°33' W 122°42'4950.3
2014-Dec-12 02:30N 46°12' W 123°23'201437.0
2014-Dec-12 02:29N 46°05' W 122°56'341781.3
2014-Dec-12 02:28N 45°33' W 122°42'  
Track history (hours):
 
Tides and Currents Weather Stations Pressure Air Temp Water Temp Dewpoint Dewpoint Depression Visibility Wind Speed Wind Dir Waves Ship Positions

Zarling

Owner: Clean Rivers Co-op, Portland, OR. More information available from US FCC via Universal Licensing System.

Last reported at 2014-Dec-22 02:25 UTC. Time now 2014-Dec-22 02:49 UTC.
Position N 46°05' W 122°56'.

Length 12 m.

Type: Pollution control. MMSI: 3699126.

Date/timePositionNaut miles runAvg speedWind from/ knotsBaromVisibWave heightAir tempDewpointWater temp
2014-Dec-22 02:25N 46°05' W 122°56'29637.0
2014-Dec-22 02:22N 45°37' W 122°48'658.1
2014-Dec-22 02:16N 45°33' W 122°42'49370.2
2014-Dec-22 02:09N 46°12' W 123°23'4364.1
2014-Dec-22 01:28N 45°37' W 122°48'67035.3
2014-Dec-22 01:28N 45°33' W 122°42'348075.0
2014-Dec-22 01:28N 46°05' W 122°56'20115.4
2014-Dec-22 01:18N 46°12' W 123°23'0 0.0
2014-Dec-22 00:32N 46°12' W 123°23'432411.4
2014-Dec-22 00:31N 45°37' W 122°48'6117.9
2014-Dec-22 00:28N 45°33' W 122°42'346729.2
2014-Dec-22 00:28N 46°05' W 122°56'2022.0
2014-Dec-21 23:33N 46°12' W 123°23'432303.7
2014-Dec-21 23:31N 45°37' W 122°48'6116.5
2014-Dec-21 23:28N 45°33' W 122°42'34320.4
2014-Dec-21 23:22N 46°05' W 122°56'2024.6
2014-Dec-21 22:33N 46°12' W 123°23'20862.2
2014-Dec-21 22:31N 46°05' W 122°56'29653.3
2014-Dec-21 22:28N 45°37' W 122°48'658.3
2014-Dec-21 22:22N 45°33' W 122°42'3439.4
2014-Dec-21 21:31N 46°05' W 122°56'29302.7
2014-Dec-21 21:25N 45°37' W 122°48'431353.9
2014-Dec-21 21:24N 46°12' W 123°23'49152.5
2014-Dec-21 21:04N 45°33' W 122°42'4991.4
2014-Dec-21 20:32N 46°12' W 123°23'20904.8
2014-Dec-21 20:31N 46°05' W 122°56'29645.0
2014-Dec-21 20:28N 45°37' W 122°48'0 0.0
2014-Dec-21 19:25N 45°37' W 122°48'431342.0
2014-Dec-21 19:24N 46°12' W 123°23'20842.4
2014-Dec-21 19:22N 46°05' W 122°56'2020.8
2014-Dec-21 18:24N 46°12' W 123°23'432530.0
2014-Dec-21 18:22N 45°37' W 122°48'294914.2
2014-Dec-21 18:22N 46°05' W 122°56'2932.1
2014-Dec-21 17:28N 45°37' W 122°48'294690.8
2014-Dec-21 17:28N 46°05' W 122°56'20779.6
2014-Dec-21 17:27N 46°12' W 123°23'49250.2
2014-Dec-21 17:15N 45°33' W 122°42'6 8.1
2014-Dec-21 16:32N 45°37' W 122°48'29505.9
2014-Dec-21 16:28N 46°05' W 122°56'2054.2
2014-Dec-21 16:06N 46°12' W 123°23'4369.4
2014-Dec-21 15:28N 45°37' W 122°48'29184.6
2014-Dec-21 15:19N 46°05' W 122°56'20264.6
2014-Dec-21 15:15N 46°12' W 123°23'2028.1
2014-Dec-21 14:31N 46°05' W 122°56'29661.5
2014-Dec-21 14:29N 45°37' W 122°48'617.9
2014-Dec-21 14:09N 45°33' W 122°42'496734.2
2014-Dec-21 14:08N 46°12' W 123°23'4369.7
2014-Dec-21 13:32N 45°37' W 122°48'431244.8
2014-Dec-21 13:30N 46°12' W 123°23'20165.4
2014-Dec-21 13:22N 46°05' W 122°56'0 0.0
2014-Dec-21 12:31N 46°05' W 122°56'29661.5
2014-Dec-21 12:29N 45°37' W 122°48'43318.9
2014-Dec-21 12:20N 46°12' W 123°23'4349.5
2014-Dec-21 11:29N 45°37' W 122°48'294300.8
2014-Dec-21 11:28N 46°05' W 122°56'20115.4
2014-Dec-21 11:18N 46°12' W 123°23'4356.0
2014-Dec-21 10:32N 45°37' W 122°48'293559.3
2014-Dec-21 10:31N 46°05' W 122°56'20788.0
2014-Dec-21 10:30N 46°12' W 123°23'0 0.0
2014-Dec-21 09:30N 46°12' W 123°23'432615.8
2014-Dec-21 09:29N 45°37' W 122°48'29111.3
2014-Dec-21 09:13N 46°05' W 122°56'0 0.0
2014-Dec-21 08:31N 46°05' W 122°56'29692.6
2014-Dec-21 08:29N 45°37' W 122°48'43511.0
2014-Dec-21 08:24N 46°12' W 123°23'2022.0
2014-Dec-21 07:28N 46°05' W 122°56'29665.8
2014-Dec-21 07:26N 45°37' W 122°48'43128.5
2014-Dec-21 07:06N 46°12' W 123°23'4375.8
2014-Dec-21 06:32N 45°37' W 122°48'29486.9
2014-Dec-21 06:28N 46°05' W 122°56'20161.4
2014-Dec-21 06:21N 46°12' W 123°23'4349.6
2014-Dec-21 05:29N 45°37' W 122°48'293559.3
2014-Dec-21 05:28N 46°05' W 122°56'20160.7
2014-Dec-21 05:21N 46°12' W 123°23'4352.6
2014-Dec-21 04:32N 45°37' W 122°48'431224.9
2014-Dec-21 04:30N 46°12' W 123°23'2063.0
2014-Dec-21 04:10N 46°05' W 122°56'2032.5
2014-Dec-21 03:33N 46°12' W 123°23'432912.3
2014-Dec-21 03:32N 45°37' W 122°48'293440.7
2014-Dec-21 03:31N 46°05' W 122°56'2020.8
2014-Dec-21 02:33N 46°12' W 123°23'43653.9
2014-Dec-21 02:29N 45°37' W 122°48'293558.6
2014-Dec-21 02:28N 46°05' W 122°56'34198.2
2014-Dec-21 02:18N 45°33' W 122°42'6 7.1
2014-Dec-21 01:29N 45°37' W 122°48'293127.2
2014-Dec-21 01:28N 46°05' W 122°56'20157.6
2014-Dec-21 01:20N 46°12' W 123°23'49346.7
2014-Dec-21 01:12N 45°33' W 122°42'4973.6
2014-Dec-21 00:32N 46°12' W 123°23'433957.7
2014-Dec-21 00:32N 45°37' W 122°48'293225.0
2014-Dec-21 00:31N 46°05' W 122°56'34480.7
2014-Dec-21 00:27N 45°33' W 122°42'0 0.0
2014-Dec-20 23:33N 45°33' W 122°42'341111.1
2014-Dec-20 23:31N 46°05' W 122°56'20678.6
2014-Dec-20 23:29N 46°12' W 123°23'43388.8
2014-Dec-20 23:23N 45°37' W 122°48'0 0.0
2014-Dec-20 22:32N 45°37' W 122°48'29484.6
2014-Dec-20 22:28N 46°05' W 122°56'0 0.0
2014-Dec-20 21:28N 46°05' W 122°56'20660.2
2014-Dec-20 21:26N 46°12' W 123°23'43267.5
2014-Dec-20 21:17N 45°37' W 122°48'4358.0
2014-Dec-20 20:32N 46°12' W 123°23'201003.9
2014-Dec-20 20:31N 46°05' W 122°56'29702.0
2014-Dec-20 20:29N 45°37' W 122°48'4345.7
2014-Dec-20 19:32N 46°12' W 123°23'43711.2
2014-Dec-20 19:29N 45°37' W 122°48'29259.9
2014-Dec-20 19:22N 46°05' W 122°56'0 0.0
2014-Dec-20 18:31N 46°05' W 122°56'29702.2
2014-Dec-20 18:29N 45°37' W 122°48'43477.9
2014-Dec-20 18:23N 46°12' W 123°23'0 0.0
2014-Dec-20 17:26N 46°12' W 123°23'43721.2
2014-Dec-20 17:23N 45°37' W 122°48'292715.7
2014-Dec-20 17:22N 46°05' W 122°56'2024.5
2014-Dec-20 16:32N 46°12' W 123°23'20170.0
2014-Dec-20 16:25N 46°05' W 122°56'29731.9
2014-Dec-20 16:23N 45°37' W 122°48'4351.0
2014-Dec-20 15:32N 46°12' W 123°23'43724.6
2014-Dec-20 15:29N 45°37' W 122°48'292715.7
2014-Dec-20 15:28N 46°05' W 122°56'2930.5
2014-Dec-20 14:32N 45°37' W 122°48'43474.9
2014-Dec-20 14:26N 46°12' W 123°23'20119.7
2014-Dec-20 14:16N 46°05' W 122°56'2027.9
2014-Dec-20 13:32N 46°12' W 123°23'20292.0
2014-Dec-20 13:28N 46°05' W 122°56'29732.1
2014-Dec-20 13:26N 45°37' W 122°48'0 0.0
2014-Dec-20 12:32N 45°37' W 122°48'29475.7
2014-Dec-20 12:28N 46°05' W 122°56'20252.7
2014-Dec-20 12:23N 46°12' W 123°23'2023.4
2014-Dec-20 11:31N 46°05' W 122°56'29322.6
2014-Dec-20 11:26N 45°37' W 122°48'431035.9
2014-Dec-20 11:23N 46°12' W 123°23'4349.9
2014-Dec-20 10:32N 45°37' W 122°48'292867.2
2014-Dec-20 10:31N 46°05' W 122°56'20648.5
2014-Dec-20 10:29N 46°12' W 123°23'4948.7
2014-Dec-20 09:29N 45°33' W 122°42'49931.4
2014-Dec-20 09:26N 46°12' W 123°23'435321.8
2014-Dec-20 09:26N 45°37' W 122°48'29178.9
2014-Dec-20 09:16N 46°05' W 122°56'2027.8
2014-Dec-20 08:32N 46°12' W 123°23'434978.4
2014-Dec-20 08:32N 45°37' W 122°48'292580.0
2014-Dec-20 08:31N 46°05' W 122°56'2020.8
2014-Dec-20 07:32N 46°12' W 123°23'20296.7
2014-Dec-20 07:28N 46°05' W 122°56'34261.6
2014-Dec-20 07:20N 45°33' W 122°42'6585.9
2014-Dec-20 07:20N 45°37' W 122°48'4354.1
2014-Dec-20 06:32N 46°12' W 123°23'436174.0
2014-Dec-20 06:32N 45°37' W 122°48'29460.8
2014-Dec-20 06:28N 46°05' W 122°56'2021.9
2014-Dec-20 05:32N 46°12' W 123°23'435936.5
2014-Dec-20 05:32N 45°37' W 122°48'29460.8
2014-Dec-20 05:28N 46°05' W 122°56'2930.6
2014-Dec-20 04:32N 45°37' W 122°48'292400.5
2014-Dec-20 04:31N 46°05' W 122°56'20253.6
2014-Dec-20 04:26N 46°12' W 123°23'0 0.0
2014-Dec-20 03:32N 46°12' W 123°23'43749.2
2014-Dec-20 03:29N 45°37' W 122°48'29456.6
2014-Dec-20 03:25N 46°05' W 122°56'0 0.0
2014-Dec-20 02:31N 46°05' W 122°56'29775.9
2014-Dec-20 02:29N 45°37' W 122°48'43970.6
2014-Dec-20 02:26N 46°12' W 123°23'4344.8
2014-Dec-20 01:29N 45°37' W 122°48'292150.0
2014-Dec-20 01:28N 46°05' W 122°56'20678.6
2014-Dec-20 01:26N 46°12' W 123°23'0 0.0
2014-Dec-20 00:32N 46°12' W 123°23'20296.7
2014-Dec-20 00:28N 46°05' W 122°56'29326.6
2014-Dec-20 00:23N 45°37' W 122°48'4350.9
2014-Dec-19 23:32N 46°12' W 123°23'201046.9
2014-Dec-19 23:31N 46°05' W 122°56'29782.0
2014-Dec-19 23:29N 45°37' W 122°48'2928.3
2014-Dec-19 22:28N 46°05' W 122°56'20251.8
2014-Dec-19 22:23N 46°12' W 123°23'435936.5
2014-Dec-19 22:23N 45°37' W 122°48'641.4
2014-Dec-19 22:14N 45°33' W 122°42'3443.6
2014-Dec-19 21:28N 46°05' W 122°56'20642.9
2014-Dec-19 21:26N 46°12' W 123°23'43775.5
2014-Dec-19 21:23N 45°37' W 122°48'4347.9
2014-Dec-19 20:29N 46°12' W 123°23'20172.4
2014-Dec-19 20:22N 46°05' W 122°56'29326.6
2014-Dec-19 20:17N 45°37' W 122°48'4357.7
2014-Dec-19 19:32N 46°12' W 123°23'201046.9
2014-Dec-19 19:31N 46°05' W 122°56'29770.1
2014-Dec-19 19:29N 45°37' W 122°48'4345.4
2014-Dec-19 18:32N 46°12' W 123°23'437350.0
2014-Dec-19 18:32N 45°37' W 122°48'29175.8
2014-Dec-19 18:22N 46°05' W 122°56'2024.5
2014-Dec-19 17:32N 46°12' W 123°23'436431.2
2014-Dec-19 17:32N 45°37' W 122°48'292064.4
2014-Dec-19 17:31N 46°05' W 122°56'2020.8
2014-Dec-19 16:32N 46°12' W 123°23'43779.5
2014-Dec-19 16:29N 45°37' W 122°48'292064.0
2014-Dec-19 16:28N 46°05' W 122°56'34147.2
2014-Dec-19 16:14N 45°33' W 122°42'4969.2
2014-Dec-19 15:32N 46°12' W 123°23'201077.7
2014-Dec-19 15:31N 46°05' W 122°56'29787.8
2014-Dec-19 15:29N 45°37' W 122°48'6 6.2
2014-Dec-19 14:32N 45°33' W 122°42'4935021.6
2014-Dec-19 14:32N 46°12' W 123°23'437716.6
2014-Dec-19 14:32N 45°37' W 122°48'292064.0
2014-Dec-19 14:31N 46°05' W 122°56'2020.8
2014-Dec-19 13:32N 46°12' W 123°23'43405.1
2014-Dec-19 13:26N 45°37' W 122°48'29134.1
2014-Dec-19 13:13N 46°05' W 122°56'3449.6
2014-Dec-19 12:32N 45°33' W 122°42'4919454.5
2014-Dec-19 12:32N 46°12' W 123°23'43779.5
2014-Dec-19 12:29N 45°37' W 122°48'292106.5
2014-Dec-19 12:28N 46°05' W 122°56'3436.2
2014-Dec-19 11:32N 45°33' W 122°42'6878.8
2014-Dec-19 11:32N 45°37' W 122°48'29441.1
2014-Dec-19 11:28N 46°05' W 122°56'20112.9
2014-Dec-19 11:17N 46°12' W 123°23'4356.7
2014-Dec-19 10:32N 45°37' W 122°48'29446.8
2014-Dec-19 10:28N 46°05' W 122°56'341175.8
2014-Dec-19 10:26N 45°33' W 122°42'4921888.5
2014-Dec-19 10:26N 46°12' W 123°23'4954.2
2014-Dec-19 09:32N 45°33' W 122°42'4921888.5
2014-Dec-19 09:32N 46°12' W 123°23'4310288.8
2014-Dec-19 09:32N 45°37' W 122°48'291911.1
2014-Dec-19 09:31N 46°05' W 122°56'2020.8
2014-Dec-19 08:32N 46°12' W 123°23'20296.7
2014-Dec-19 08:28N 46°05' W 122°56'29806.2
2014-Dec-19 08:26N 45°37' W 122°48'4347.8
2014-Dec-19 07:32N 46°12' W 123°23'201077.7
2014-Dec-19 07:31N 46°05' W 122°56'29825.6
2014-Dec-19 07:29N 45°37' W 122°48'4345.3
2014-Dec-19 06:32N 46°12' W 123°23'201093.8
2014-Dec-19 06:31N 46°05' W 122°56'29212.3
2014-Dec-19 06:23N 45°37' W 122°48'640.8
2014-Dec-19 06:14N 45°33' W 122°42'4969.2
2014-Dec-19 05:32N 46°12' W 123°23'43799.7
2014-Dec-19 05:29N 45°37' W 122°48'291876.7
2014-Dec-19 05:28N 46°05' W 122°56'341176.0
2014-Dec-19 05:26N 45°33' W 122°42'4953.9
2014-Dec-19 04:32N 46°12' W 123°23'201062.2
2014-Dec-19 04:31N 46°05' W 122°56'341175.8
2014-Dec-19 04:29N 45°33' W 122°42'655.2
2014-Dec-19 04:23N 45°37' W 122°48'2933.2
2014-Dec-19 03:31N 46°05' W 122°56'29337.2
2014-Dec-19 03:26N 45°37' W 122°48'43447.4
2014-Dec-19 03:20N 46°12' W 123°23'49195.7
2014-Dec-19 03:05N 45°33' W 122°42'610.5
2014-Dec-19 02:32N 45°37' W 122°48'291842.8
2014-Dec-19 02:31N 46°05' W 122°56'341164.7
2014-Dec-19 02:29N 45°33' W 122°42'49138.1
2014-Dec-19 02:08N 46°12' W 123°23'2030.4
2014-Dec-19 01:28N 46°05' W 122°56'341223.5
2014-Dec-19 01:26N 45°33' W 122°42'4929184.7
2014-Dec-19 01:26N 46°12' W 123°23'43783.4
2014-Dec-19 01:23N 45°37' W 122°48'4350.7
2014-Dec-19 00:32N 46°12' W 123°23'201062.1
2014-Dec-19 00:31N 46°05' W 122°56'29852.9
2014-Dec-19 00:29N 45°37' W 122°48'640.4
2014-Dec-19 00:20N 45°33' W 122°42'4960.6
2014-Dec-18 23:32N 46°12' W 123°23'4314031.8
2014-Dec-18 23:32N 45°37' W 122°48'291843.2
2014-Dec-18 23:31N 46°05' W 122°56'3488.7
2014-Dec-18 23:08N 45°33' W 122°42'6 9.7
2014-Dec-18 22:32N 45°37' W 122°48'43439.7
2014-Dec-18 22:26N 46°12' W 123°23'201062.1
2014-Dec-18 22:25N 46°05' W 122°56'2023.1
2014-Dec-18 21:32N 46°12' W 123°23'20290.8
2014-Dec-18 21:28N 46°05' W 122°56'29344.0
2014-Dec-18 21:23N 45°37' W 122°48'6 6.9
2014-Dec-18 20:32N 45°33' W 122°42'4917510.8
2014-Dec-18 20:32N 46°12' W 123°23'20290.8
2014-Dec-18 20:28N 46°05' W 122°56'29348.6
2014-Dec-18 20:23N 45°37' W 122°48'4350.6
2014-Dec-18 19:32N 46°12' W 123°23'4315433.2
2014-Dec-18 19:32N 45°37' W 122°48'291720.0
2014-Dec-18 19:31N 46°05' W 122°56'34102.2
2014-Dec-18 19:11N 45°33' W 122°42'3446.7
2014-Dec-18 18:28N 46°05' W 122°56'29874.7
2014-Dec-18 18:26N 45°37' W 122°48'6128.6
2014-Dec-18 18:23N 45°33' W 122°42'49478.4
2014-Dec-18 18:17N 46°12' W 123°23'0 0.0
2014-Dec-18 17:32N 46°12' W 123°23'4325721.9
2014-Dec-18 17:32N 45°37' W 122°48'291691.8
2014-Dec-18 17:31N 46°05' W 122°56'34261.6
2014-Dec-18 17:23N 45°33' W 122°42'6 6.9
2014-Dec-18 16:32N 45°37' W 122°48'291664.5
2014-Dec-18 16:31N 46°05' W 122°56'20251.8
2014-Dec-18 16:26N 46°12' W 123°23'491030.0
2014-Dec-18 16:23N 45°33' W 122°42'4957.0
2014-Dec-18 15:32N 46°12' W 123°23'201093.8
2014-Dec-18 15:31N 46°05' W 122°56'341153.6
2014-Dec-18 15:29N 45°33' W 122°42'6108.8
2014-Dec-18 15:26N 45°37' W 122°48'0 0.0
2014-Dec-18 14:32N 45°37' W 122°48'6126.3
2014-Dec-18 14:29N 45°33' W 122°42'341615.0
2014-Dec-18 14:28N 46°05' W 122°56'20654.4
2014-Dec-18 14:26N 46°12' W 123°23'4951.3
2014-Dec-18 13:29N 45°33' W 122°42'4925015.4
2014-Dec-18 13:29N 46°12' W 123°23'4322049.9
2014-Dec-18 13:29N 45°37' W 122°48'291588.0
2014-Dec-18 13:28N 46°05' W 122°56'3436.3
2014-Dec-18 12:32N 45°33' W 122°42'4921888.5
2014-Dec-18 12:32N 46°12' W 123°23'20294.3
2014-Dec-18 12:28N 46°05' W 122°56'29348.7
2014-Dec-18 12:23N 45°37' W 122°48'4350.5
2014-Dec-18 11:32N 46°12' W 123°23'491000.6
2014-Dec-18 11:29N 45°33' W 122°42'341659.3
2014-Dec-18 11:28N 46°05' W 122°56'29156.9
2014-Dec-18 11:17N 45°37' W 122°48'6 7.9
2014-Dec-18 10:32N 45°33' W 122°42'61757.6
2014-Dec-18 10:32N 45°37' W 122°48'43433.6
2014-Dec-18 10:26N 46°12' W 123°23'201032.2
2014-Dec-18 10:25N 46°05' W 122°56'2023.1
2014-Dec-18 09:32N 46°12' W 123°23'43154331.6
2014-Dec-18 09:32N 45°37' W 122°48'291453.5
2014-Dec-18 09:31N 46°05' W 122°56'34146.8
2014-Dec-18 09:17N 45°33' W 122°42'4964.7
2014-Dec-18 08:32N 46°12' W 123°23'4351443.9
2014-Dec-18 08:32N 45°37' W 122°48'6124.9
2014-Dec-18 08:29N 45°33' W 122°42'34277.2
2014-Dec-18 08:22N 46°05' W 122°56'3438.3
2014-Dec-18 07:29N 45°33' W 122°42'4929184.7
2014-Dec-18 07:29N 46°12' W 123°23'20170.8
2014-Dec-18 07:22N 46°05' W 122°56'29905.4
2014-Dec-18 07:20N 45°37' W 122°48'4353.7
2014-Dec-18 06:32N 46°12' W 123°23'43829.7
2014-Dec-18 06:29N 45°37' W 122°48'291638.1
2014-Dec-18 06:28N 46°05' W 122°56'3436.2
2014-Dec-18 05:32N 45°33' W 122°42'49936.4
2014-Dec-18 05:29N 46°12' W 123°23'4351449.8
2014-Dec-18 05:29N 45°37' W 122°48'291474.6
2014-Dec-18 05:28N 46°05' W 122°56'2929.2
2014-Dec-18 04:29N 45°37' W 122°48'29416.1
2014-Dec-18 04:25N 46°05' W 122°56'34261.0
2014-Dec-18 04:17N 45°33' W 122°42'4921888.5
2014-Dec-18 04:17N 46°12' W 123°23'2026.5
2014-Dec-18 03:31N 46°05' W 122°56'341142.5
2014-Dec-18 03:29N 45°33' W 122°42'4935021.6
2014-Dec-18 03:29N 46°12' W 123°23'43154349.3
2014-Dec-18 03:29N 45°37' W 122°48'4340.8
2014-Dec-18 02:26N 46°12' W 123°23'20120.3
2014-Dec-18 02:16N 46°05' W 122°56'34189.0
2014-Dec-18 02:05N 45°33' W 122°42'0 0.0
2014-Dec-18 01:29N 45°33' W 122°42'64218.1
2014-Dec-18 01:29N 45°37' W 122°48'43848.0
2014-Dec-18 01:26N 46°12' W 123°23'201093.8
2014-Dec-18 01:25N 46°05' W 122°56'2023.1
2014-Dec-18 00:32N 46°12' W 123°23'201062.1
2014-Dec-18 00:31N 46°05' W 122°56'29929.7
2014-Dec-18 00:29N 45°37' W 122°48'2929.6
2014-Dec-17 23:31N 46°05' W 122°56'341187.5
2014-Dec-17 23:29N 45°33' W 122°42'4935021.6
2014-Dec-17 23:29N 46°12' W 123°23'43425.2
2014-Dec-17 23:23N 45°37' W 122°48'0 0.0
2014-Dec-17 22:32N 45°37' W 122°48'4377174.7
2014-Dec-17 22:32N 46°12' W 123°23'491018.1
2014-Dec-17 22:29N 45°33' W 122°42'341593.8
2014-Dec-17 22:28N 46°05' W 122°56'0 0.0
2014-Dec-17 21:31N 46°05' W 122°56'341176.0
2014-Dec-17 21:29N 45°33' W 122°42'610552.9
2014-Dec-17 21:29N 45°37' W 122°48'4351443.9
2014-Dec-17 21:29N 46°12' W 123°23'2021.0
2014-Dec-17 20:31N 46°05' W 122°56'20678.6
2014-Dec-17 20:29N 46°12' W 123°23'43214.3
2014-Dec-17 20:17N 45°37' W 122°48'4357.1
2014-Dec-17 19:32N 46°12' W 123°23'43437.2
2014-Dec-17 19:26N 45°37' W 122°48'29401.6
2014-Dec-17 19:22N 46°05' W 122°56'34262.2
2014-Dec-17 19:14N 45°33' W 122°42'6 7.8
2014-Dec-17 18:29N 45°37' W 122°48'43821.0
2014-Dec-17 18:26N 46°12' W 123°23'201062.1
2014-Dec-17 18:25N 46°05' W 122°56'2932.6
2014-Dec-17 17:32N 45°37' W 122°48'43834.2
2014-Dec-17 17:29N 46°12' W 123°23'20170.8
2014-Dec-17 17:22N 46°05' W 122°56'34260.5
2014-Dec-17 17:14N 45°33' W 122°42'4969.3
2014-Dec-17 16:32N 46°12' W 123°23'201093.8
2014-Dec-17 16:31N 46°05' W 122°56'341142.7
2014-Dec-17 16:29N 45°33' W 122°42'629.4
2014-Dec-17 16:17N 45°37' W 122°48'4357.0
2014-Dec-17 15:32N 46°12' W 123°23'491012.2
2014-Dec-17 15:29N 45°33' W 122°42'341615.0
2014-Dec-17 15:28N 46°05' W 122°56'29973.6
2014-Dec-17 15:26N 45°37' W 122°48'4347.6
2014-Dec-17 14:32N 46°12' W 123°23'49989.3
2014-Dec-17 14:29N 45°33' W 122°42'341615.0
2014-Dec-17 14:28N 46°05' W 122°56'2929.3
2014-Dec-17 13:29N 45°37' W 122°48'4377174.7
2014-Dec-17 13:29N 46°12' W 123°23'201017.9
2014-Dec-17 13:28N 46°05' W 122°56'3488.9
2014-Dec-17 13:05N 45°33' W 122°42'610.7
2014-Dec-17 12:32N 45°37' W 122°48'4322049.9
2014-Dec-17 12:32N 46°12' W 123°23'20293.2
2014-Dec-17 12:28N 46°05' W 122°56'34188.7
2014-Dec-17 12:17N 45°33' W 122°42'4964.6
2014-Dec-17 11:32N 46°12' W 123°23'201077.7
2014-Dec-17 11:31N 46°05' W 122°56'29364.7
2014-Dec-17 11:26N 45°37' W 122°48'623.4
2014-Dec-17 11:11N 45°33' W 122°42'4974.6
2014-Dec-17 10:32N 46°12' W 123°23'43907.9
2014-Dec-17 10:29N 45°37' W 122°48'610552.9
2014-Dec-17 10:29N 45°33' W 122°42'34196.3
2014-Dec-17 10:19N 46°05' W 122°56'0 0.0
2014-Dec-17 09:31N 46°05' W 122°56'20654.3
2014-Dec-17 09:29N 46°12' W 123°23'49496.1
2014-Dec-17 09:23N 45°33' W 122°42'6119.2
2014-Dec-17 09:20N 45°37' W 122°48'0 0.0
2014-Dec-17 08:32N 45°37' W 122°48'4315433.2
2014-Dec-17 08:32N 46°12' W 123°23'20747.8
2014-Dec-17 08:31N 46°05' W 122°56'34277.8
2014-Dec-17 08:23N 45°33' W 122°42'4957.1
2014-Dec-17 07:32N 46°12' W 123°23'20755.5
2014-Dec-17 07:31N 46°05' W 122°56'291474.6
2014-Dec-17 07:29N 45°37' W 122°48'65272.7
2014-Dec-17 07:29N 45°33' W 122°42'6 6.2
2014-Dec-17 06:32N 45°37' W 122°48'65276.5
2014-Dec-17 06:32N 45°33' W 122°42'4917510.8
2014-Dec-17 06:32N 46°12' W 123°23'20160.4
2014-Dec-17 06:25N 46°05' W 122°56'2023.4
2014-Dec-17 05:32N 46°12' W 123°23'20718.5
2014-Dec-17 05:31N 46°05' W 122°56'29240.6
2014-Dec-17 05:23N 45°37' W 122°48'657.6
2014-Dec-17 05:17N 45°33' W 122°42'3443.2
2014-Dec-17 04:31N 46°05' W 122°56'291474.3
2014-Dec-17 04:29N 45°37' W 122°48'4312861.0
2014-Dec-17 04:29N 46°12' W 123°23'49245.9
2014-Dec-17 04:17N 45°33' W 122°42'6 7.8
2014-Dec-17 03:33N 45°37' W 122°48'4311023.7
2014-Dec-17 03:32N 46°12' W 123°23'20755.5
2014-Dec-17 03:31N 46°05' W 122°56'34279.1
2014-Dec-17 03:23N 45°33' W 122°42'4957.1
2014-Dec-17 02:32N 46°12' W 123°23'20755.5
2014-Dec-17 02:31N 46°05' W 122°56'291540.3
2014-Dec-17 02:30N 45°37' W 122°48'63517.6
2014-Dec-17 02:29N 45°33' W 122°42'0 0.0
2014-Dec-17 01:32N 45°33' W 122°42'6120.6
2014-Dec-17 01:29N 45°37' W 122°48'43417.1
2014-Dec-17 01:23N 46°12' W 123°23'20264.6
2014-Dec-17 01:19N 46°05' W 122°56'2937.2
2014-Dec-17 00:33N 45°37' W 122°48'4311023.7
2014-Dec-17 00:32N 46°12' W 123°23'20262.7
2014-Dec-17 00:28N 46°05' W 122°56'2931.2
2014-Dec-16 23:33N 45°37' W 122°48'6111.7
2014-Dec-16 23:29N 45°33' W 122°42'4943777.0
2014-Dec-16 23:29N 46°12' W 123°23'20159.3
2014-Dec-16 23:22N 46°05' W 122°56'0 0.0
2014-Dec-16 22:31N 46°05' W 122°56'20207.6
2014-Dec-16 22:25N 46°12' W 123°23'432114.4
2014-Dec-16 22:24N 45°37' W 122°48'629.0
2014-Dec-16 22:11N 45°33' W 122°42'6 9.1
2014-Dec-16 21:33N 45°37' W 122°48'29349.8
2014-Dec-16 21:28N 46°05' W 122°56'20137.8
2014-Dec-16 21:19N 46°12' W 123°23'0 0.0
2014-Dec-16 20:31N 46°12' W 123°23'205637.4
2014-Dec-16 20:31N 46°05' W 122°56'29244.0
2014-Dec-16 20:24N 45°37' W 122°48'4350.6
2014-Dec-16 19:33N 46°12' W 123°23'4311871.7
2014-Dec-16 19:33N 45°37' W 122°48'29889.6
2014-Dec-16 19:31N 46°05' W 122°56'34124.9
2014-Dec-16 19:14N 45°33' W 122°42'4965.5
2014-Dec-16 18:30N 46°12' W 123°23'43771.7
2014-Dec-16 18:27N 45°37' W 122°48'29889.8
2014-Dec-16 18:25N 46°05' W 122°56'0 0.0
2014-Dec-16 17:31N 46°05' W 122°56'201465.7
2014-Dec-16 17:30N 46°12' W 123°23'4310288.8
2014-Dec-16 17:30N 45°37' W 122°48'0 0.0
2014-Dec-16 16:33N 45°37' W 122°48'43447.3
2014-Dec-16 16:27N 46°12' W 123°23'20572.5
2014-Dec-16 16:25N 46°05' W 122°56'0 0.0
2014-Dec-16 15:28N 46°05' W 122°56'29430.0
2014-Dec-16 15:24N 45°37' W 122°48'43892.1
2014-Dec-16 15:21N 46°12' W 123°23'4353.4
2014-Dec-16 14:33N 45°37' W 122°48'29860.2
2014-Dec-16 14:31N 46°05' W 122°56'20325.7
2014-Dec-16 14:27N 46°12' W 123°23'49829.9
2014-Dec-16 14:23N 45°33' W 122°42'6 6.9
2014-Dec-16 13:33N 45°37' W 122°48'6107.7
2014-Dec-16 13:29N 45°33' W 122°42'491159.7
2014-Dec-16 13:27N 46°12' W 123°23'20551.0
2014-Dec-16 13:25N 46°05' W 122°56'2022.3
2014-Dec-16 12:30N 46°12' W 123°23'4314030.1
2014-Dec-16 12:30N 45°37' W 122°48'29255.4
2014-Dec-16 12:23N 46°05' W 122°56'34176.3
2014-Dec-16 12:11N 45°33' W 122°42'4970.1
2014-Dec-16 11:30N 46°12' W 123°23'4315433.2
2014-Dec-16 11:30N 45°37' W 122°48'29726.7
2014-Dec-16 11:27N 46°05' W 122°56'34127.1
2014-Dec-16 11:11N 45°33' W 122°42'3452.9
2014-Dec-16 10:33N 46°05' W 122°56'202818.7
2014-Dec-16 10:33N 46°12' W 123°23'43803.8
2014-Dec-16 10:30N 45°37' W 122°48'0 0.0
2014-Dec-16 09:33N 45°37' W 122°48'43438.4
2014-Dec-16 09:27N 46°12' W 123°23'20143.7
2014-Dec-16 09:18N 46°05' W 122°56'2026.9
2014-Dec-16 08:33N 46°12' W 123°23'20218.1
2014-Dec-16 08:27N 46°05' W 122°56'29473.4
2014-Dec-16 08:24N 45°37' W 122°48'4350.6
2014-Dec-16 07:33N 46°12' W 123°23'43419.4
2014-Dec-16 07:27N 45°37' W 122°48'29319.5
2014-Dec-16 07:21N 46°05' W 122°56'0 0.0
2014-Dec-16 06:33N 46°05' W 122°56'202527.1
2014-Dec-16 06:33N 46°12' W 123°23'43285.3
2014-Dec-16 06:24N 45°37' W 122°48'4350.6
2014-Dec-16 05:33N 46°12' W 123°23'4351443.9
2014-Dec-16 05:33N 45°37' W 122°48'29711.7
2014-Dec-16 05:30N 46°05' W 122°56'2021.3
2014-Dec-16 04:33N 46°12' W 123°23'20105.0
2014-Dec-16 04:21N 46°05' W 122°56'293685.7
2014-Dec-16 04:21N 45°37' W 122°48'651.6
2014-Dec-16 04:14N 45°33' W 122°42'3443.1
2014-Dec-16 03:27N 46°05' W 122°56'20364.6
2014-Dec-16 03:24N 46°12' W 123°23'4351449.8
2014-Dec-16 03:24N 45°37' W 122°48'4350.5
2014-Dec-16 02:33N 46°12' W 123°23'43783.4
2014-Dec-16 02:30N 45°37' W 122°48'29260.6
2014-Dec-16 02:23N 46°05' W 122°56'34179.7
2014-Dec-16 02:12N 45°33' W 122°42'4953.4
2014-Dec-16 01:17N 46°12' W 123°23'20111.2
2014-Dec-16 01:06N 46°05' W 122°56'0 0.0
2014-Dec-15 23:33N 46°05' W 122°56'202442.9
2014-Dec-15 23:33N 46°12' W 123°23'43171.1
2014-Dec-15 23:18N 45°37' W 122°48'655.5
2014-Dec-15 23:11N 45°33' W 122°42'3453.0
2014-Dec-15 22:33N 46°05' W 122°56'34203.6
2014-Dec-15 22:23N 45°33' W 122°42'491101.3
2014-Dec-15 22:21N 46°12' W 123°23'43867.1
2014-Dec-15 22:18N 45°37' W 122°48'2938.6
2014-Dec-15 21:33N 46°05' W 122°56'293225.0
2014-Dec-15 21:33N 45°37' W 122°48'43431.1
2014-Dec-15 21:27N 46°12' W 123°23'49136.7
2014-Dec-15 21:05N 45°33' W 122°42'3462.8
2014-Dec-15 20:33N 46°05' W 122°56'202527.1
2014-Dec-15 20:33N 46°12' W 123°23'43427.5
2014-Dec-15 20:27N 45°37' W 122°48'616.4
2014-Dec-15 20:05N 45°33' W 122°42'3462.9
2014-Dec-15 19:33N 46°05' W 122°56'20190.8
2014-Dec-15 19:27N 46°12' W 123°23'43283.2
2014-Dec-15 19:18N 45°37' W 122°48'0 0.0
2014-Dec-15 18:33N 45°37' W 122°48'43424.0
2014-Dec-15 18:27N 46°12' W 123°23'20224.1
2014-Dec-15 18:21N 46°05' W 122°56'34203.2
2014-Dec-15 18:11N 45°33' W 122°42'3452.9
2014-Dec-15 17:33N 46°05' W 122°56'29496.1
2014-Dec-15 17:30N 45°37' W 122°48'43867.0
2014-Dec-15 17:27N 46°12' W 123°23'2022.8
2014-Dec-15 16:33N 46°05' W 122°56'293969.2
2014-Dec-15 16:33N 45°37' W 122°48'4351443.9
2014-Dec-15 16:33N 46°12' W 123°23'2020.5
2014-Dec-15 15:33N 46°05' W 122°56'202617.3
2014-Dec-15 15:33N 46°12' W 123°23'49854.2
2014-Dec-15 15:29N 45°33' W 122°42'620.0
2014-Dec-15 15:12N 45°37' W 122°48'2944.6
2014-Dec-15 14:33N 46°05' W 122°56'202617.3
2014-Dec-15 14:33N 46°12' W 123°23'43867.0
2014-Dec-15 14:30N 45°37' W 122°48'654.5
2014-Dec-15 14:23N 45°33' W 122°42'6 7.0
2014-Dec-15 13:33N 45°37' W 122°48'4377174.7
2014-Dec-15 13:33N 46°12' W 123°23'49862.6
2014-Dec-15 13:29N 45°33' W 122°42'34946.3
2014-Dec-15 13:27N 46°05' W 122°56'0 0.0
2014-Dec-15 12:33N 46°05' W 122°56'34582.3
2014-Dec-15 12:29N 45°33' W 122°42'663.0
2014-Dec-15 12:24N 45°37' W 122°48'4350.4
2014-Dec-15 11:33N 46°12' W 123°23'498338.5
2014-Dec-15 11:32N 45°33' W 122°42'34752.3
2014-Dec-15 11:30N 46°05' W 122°56'29144.6
2014-Dec-15 11:18N 45°37' W 122°48'0 0.0
2014-Dec-15 10:33N 45°37' W 122°48'296881.3
2014-Dec-15 10:33N 46°05' W 122°56'20206.5
2014-Dec-15 10:27N 46°12' W 123°23'49854.3
2014-Dec-15 10:23N 45°33' W 122°42'6 7.0
2014-Dec-15 09:33N 45°37' W 122°48'43422.8
2014-Dec-15 09:27N 46°12' W 123°23'20203.0
2014-Dec-15 09:21N 46°05' W 122°56'34614.9
2014-Dec-15 09:17N 45°33' W 122°42'4965.3
2014-Dec-15 08:33N 46°12' W 123°23'2036642.8
2014-Dec-15 08:33N 46°05' W 122°56'29291.5
2014-Dec-15 08:27N 45°37' W 122°48'622.8
2014-Dec-15 08:11N 45°33' W 122°42'6 9.1
2014-Dec-15 07:33N 45°37' W 122°48'29557.8
2014-Dec-15 07:30N 46°05' W 122°56'345266.3
2014-Dec-15 07:29N 45°33' W 122°42'491115.3
2014-Dec-15 07:27N 46°12' W 123°23'4345.2
2014-Dec-15 06:30N 45°37' W 122°48'29279.7
2014-Dec-15 06:24N 46°05' W 122°56'20436.2
2014-Dec-15 06:21N 46°12' W 123°23'4353.6
2014-Dec-15 05:33N 45°37' W 122°48'4319293.7
2014-Dec-15 05:33N 46°12' W 123°23'20404.9
2014-Dec-15 05:30N 46°05' W 122°56'34163.2
2014-Dec-15 05:17N 45°33' W 122°42'6 7.9
2014-Dec-15 04:33N 45°37' W 122°48'2911466.5
2014-Dec-15 04:33N 46°05' W 122°56'20204.1
2014-Dec-15 04:27N 46°12' W 123°23'4347.8
2014-Dec-15 03:33N 45°37' W 122°48'4319291.4
2014-Dec-15 03:33N 46°12' W 123°23'2073285.7
2014-Dec-15 03:33N 46°05' W 122°56'345767.9
2014-Dec-15 03:32N 45°33' W 122°42'6 5.9
2014-Dec-15 02:33N 45°37' W 122°48'29546.0
2014-Dec-15 02:30N 46°05' W 122°56'20137.5
2014-Dec-15 02:21N 46°12' W 123°23'49833.8
2014-Dec-15 02:17N 45°33' W 122°42'6 7.9
2014-Dec-15 01:33N 45°37' W 122°48'2914742.6
2014-Dec-15 01:33N 46°05' W 122°56'2024428.6
2014-Dec-15 01:33N 46°12' W 123°23'0 0.0
2014-Dec-15 00:33N 46°12' W 123°23'20400.5
2014-Dec-15 00:30N 46°05' W 122°56'345767.9
2014-Dec-15 00:29N 45°33' W 122°42'6141.7
2014-Dec-15 00:27N 45°37' W 122°48'0 0.0
2014-Dec-14 23:33N 45°37' W 122°48'29529.3
2014-Dec-14 23:30N 46°05' W 122°56'34317.9
2014-Dec-14 23:23N 45°33' W 122°42'49341.3
2014-Dec-14 23:15N 46°12' W 123°23'0 0.0
2014-Dec-14 22:33N 46°12' W 123°23'2036642.8
2014-Dec-14 22:33N 46°05' W 122°56'29603.6
2014-Dec-14 22:30N 45°37' W 122°48'6602.6
2014-Dec-14 22:29N 45°33' W 122°42'4951.6
2014-Dec-14 21:33N 46°12' W 123°23'2073285.7
2014-Dec-14 21:33N 46°05' W 122°56'29618.0
2014-Dec-14 21:30N 45°37' W 122°48'0 0.0
2014-Dec-14 20:33N 45°37' W 122°48'439078.3
2014-Dec-14 20:33N 46°12' W 123°23'20202.4
2014-Dec-14 20:27N 46°05' W 122°56'2022.7
2014-Dec-14 19:33N 46°12' W 123°23'43887.0
2014-Dec-14 19:30N 45°37' W 122°48'6659.6
2014-Dec-14 19:29N 45°33' W 122°42'34761.8
2014-Dec-14 19:27N 46°05' W 122°56'2022.6
2014-Dec-14 18:33N 46°12' W 123°23'2018321.4
2014-Dec-14 18:33N 46°05' W 122°56'29197.7
2014-Dec-14 18:24N 45°37' W 122°48'627.2
2014-Dec-14 18:11N 45°33' W 122°42'6 9.2
2014-Dec-14 17:33N 45°37' W 122°48'439645.7
2014-Dec-14 17:33N 46°12' W 123°23'20404.9
2014-Dec-14 17:30N 46°05' W 122°56'34160.0
2014-Dec-14 17:17N 45°33' W 122°42'6 8.0
2014-Dec-14 16:33N 45°37' W 122°48'4310288.8
2014-Dec-14 16:33N 46°12' W 123°23'2073285.7
2014-Dec-14 16:33N 46°05' W 122°56'34560.7
2014-Dec-14 16:29N 45°33' W 122°42'4951.8
2014-Dec-14 15:33N 46°12' W 123°23'2012214.3
2014-Dec-14 15:33N 46°05' W 122°56'34558.2
2014-Dec-14 15:29N 45°33' W 122°42'6 6.3
2014-Dec-14 14:33N 45°37' W 122°48'690.5
2014-Dec-14 14:29N 45°33' W 122°42'49548.9
2014-Dec-14 14:24N 46°12' W 123°23'20200.2
2014-Dec-14 14:18N 46°05' W 122°56'2027.2
2014-Dec-14 13:33N 46°12' W 123°23'2018321.4
2014-Dec-14 13:33N 46°05' W 122°56'34560.8
2014-Dec-14 13:29N 45°33' W 122°42'668.7
2014-Dec-14 13:24N 45°37' W 122°48'6 6.8
2014-Dec-14 12:32N 45°33' W 122°42'49537.1
2014-Dec-14 12:27N 46°12' W 123°23'43295.1
2014-Dec-14 12:18N 45°37' W 122°48'29184.9
2014-Dec-14 12:09N 46°05' W 122°56'2034.0
2014-Dec-14 11:33N 46°12' W 123°23'494864.1
2014-Dec-14 11:32N 45°33' W 122°42'6164.8
2014-Dec-14 11:30N 45°37' W 122°48'295161.0
2014-Dec-14 11:30N 46°05' W 122°56'2021.4
2014-Dec-14 10:33N 46°12' W 123°23'43958.7
2014-Dec-14 10:30N 45°37' W 122°48'29518.7
2014-Dec-14 10:27N 46°05' W 122°56'34558.2
2014-Dec-14 10:23N 45°33' W 122°42'4957.9
2014-Dec-14 09:33N 46°12' W 123°23'43952.7
2014-Dec-14 09:30N 45°37' W 122°48'295733.2
2014-Dec-14 09:30N 46°05' W 122°56'2021.4
2014-Dec-14 08:33N 46°12' W 123°23'43174.8
2014-Dec-14 08:18N 45°37' W 122°48'29521.3
2014-Dec-14 08:15N 46°05' W 122°56'2938.5
2014-Dec-14 07:30N 45°37' W 122°48'29516.0
2014-Dec-14 07:27N 46°05' W 122°56'20204.1
2014-Dec-14 07:21N 46°12' W 123°23'2023.9
2014-Dec-14 06:30N 46°05' W 122°56'34563.4
2014-Dec-14 06:26N 45°33' W 122°42'6170.2
2014-Dec-14 06:24N 45°37' W 122°48'43410.5
2014-Dec-14 06:18N 46°12' W 123°23'0 0.0
2014-Dec-14 05:30N 46°12' W 123°23'2012214.3
2014-Dec-14 05:30N 46°05' W 122°56'343364.6
2014-Dec-14 05:29N 45°33' W 122°42'670.1
2014-Dec-14 05:24N 45°37' W 122°48'0 0.0
2014-Dec-14 04:33N 45°37' W 122°48'43407.2
2014-Dec-14 04:27N 46°12' W 123°23'2018321.4
2014-Dec-14 04:27N 46°05' W 122°56'343364.0
2014-Dec-14 04:26N 45°33' W 122°42'6 6.6
2014-Dec-14 03:33N 45°37' W 122°48'438123.7
2014-Dec-14 03:33N 46°12' W 123°23'2018321.4
2014-Dec-14 03:33N 46°05' W 122°56'3482.1
2014-Dec-14 03:08N 45°33' W 122°42'4982.5
2014-Dec-14 02:33N 46°12' W 123°23'2073285.7
2014-Dec-14 02:33N 46°05' W 122°56'343460.7
2014-Dec-14 02:32N 45°33' W 122°42'6173.0
2014-Dec-14 02:30N 45°37' W 122°48'4344.9
2014-Dec-14 01:33N 46°12' W 123°23'20201.3
2014-Dec-14 01:27N 46°05' W 122°56'34305.1
2014-Dec-14 01:20N 45°33' W 122°42'644.0
2014-Dec-14 01:12N 45°37' W 122°48'4365.3
2014-Dec-14 00:33N 46°12' W 123°23'43221.8
2014-Dec-14 00:21N 45°37' W 122°48'29513.5
2014-Dec-14 00:18N 46°05' W 122°56'34550.6
2014-Dec-14 00:14N 45°33' W 122°42'6 8.6
2014-Dec-13 23:33N 45°37' W 122°48'437015.9
2014-Dec-13 23:33N 46°12' W 123°23'20203.0
2014-Dec-13 23:27N 46°05' W 122°56'0 0.0
2014-Dec-13 22:33N 46°05' W 122°56'2018321.4
2014-Dec-13 22:33N 46°12' W 123°23'43146.6
2014-Dec-13 22:15N 45°37' W 122°48'4360.6
2014-Dec-13 21:33N 46°12' W 123°23'20732.9
2014-Dec-13 21:31N 46°05' W 122°56'29248.1
2014-Dec-13 21:24N 45°37' W 122°48'4347.4
2014-Dec-13 20:30N 46°12' W 123°23'49646.2
2014-Dec-13 20:25N 45°33' W 122°42'348651.8
2014-Dec-13 20:25N 46°05' W 122°56'291842.8
2014-Dec-13 20:24N 45°37' W 122°48'0 0.0
2014-Dec-13 19:33N 45°37' W 122°48'29212.0
2014-Dec-13 19:25N 46°05' W 122°56'204310.9
2014-Dec-13 19:25N 46°12' W 123°23'0 0.0
2014-Dec-13 18:33N 46°12' W 123°23'43834.3
2014-Dec-13 18:30N 45°37' W 122°48'29212.0
2014-Dec-13 18:22N 46°05' W 122°56'2025.0
2014-Dec-13 17:33N 46°12' W 123°23'43843.3
2014-Dec-13 17:30N 45°37' W 122°48'2985.4
2014-Dec-13 17:10N 46°05' W 122°56'34729.7
2014-Dec-13 17:07N 45°33' W 122°42'4985.8
2014-Dec-13 16:33N 46°12' W 123°23'20563.7
2014-Dec-13 16:31N 46°05' W 122°56'29133.5
2014-Dec-13 16:18N 45°37' W 122°48'632.3
2014-Dec-13 16:07N 45°33' W 122°42'4985.7
2014-Dec-13 15:33N 46°12' W 123°23'43852.7
2014-Dec-13 15:30N 45°37' W 122°48'29800.0
2014-Dec-13 15:28N 46°05' W 122°56'34725.3
2014-Dec-13 15:25N 45°33' W 122°42'4956.1
2014-Dec-13 14:33N 46°12' W 123°23'43426.3
2014-Dec-13 14:27N 45°37' W 122°48'6185.1
2014-Dec-13 14:25N 45°33' W 122°42'34323.0
2014-Dec-13 14:19N 46°05' W 122°56'2937.5
2014-Dec-13 13:33N 45°37' W 122°48'43154349.4
2014-Dec-13 13:33N 46°12' W 123°23'20568.1
2014-Dec-13 13:31N 46°05' W 122°56'34346.1
2014-Dec-13 13:25N 45°33' W 122°42'4956.1
2014-Dec-13 12:33N 46°12' W 123°23'491459.2
2014-Dec-13 12:31N 45°33' W 122°42'6357.7
2014-Dec-13 12:30N 45°37' W 122°48'29209.8
2014-Dec-13 12:22N 46°05' W 122°56'2933.2
2014-Dec-13 11:30N 45°37' W 122°48'29787.9
2014-Dec-13 11:28N 46°05' W 122°56'20178.7
2014-Dec-13 11:21N 46°12' W 123°23'491471.5
2014-Dec-13 11:19N 45°33' W 122°42'4963.4
2014-Dec-13 10:33N 46°12' W 123°23'491471.5
2014-Dec-13 10:31N 45°33' W 122°42'6340.4
2014-Dec-13 10:30N 45°37' W 122°48'29332.9
2014-Dec-13 10:25N 46°05' W 122°56'2933.2
2014-Dec-13 09:33N 45°37' W 122°48'43154331.6
2014-Dec-13 09:33N 46°12' W 123°23'20568.1
2014-Dec-13 09:31N 46°05' W 122°56'34346.1
2014-Dec-13 09:25N 45°33' W 122°42'6 6.4
2014-Dec-13 08:30N 45°37' W 122°48'43843.4
2014-Dec-13 08:27N 46°12' W 123°23'20149.6
2014-Dec-13 08:19N 46°05' W 122°56'34171.3
2014-Dec-13 08:07N 45°33' W 122°42'610.3
2014-Dec-13 07:33N 45°37' W 122°48'29770.3
2014-Dec-13 07:31N 46°05' W 122°56'20321.4
2014-Dec-13 07:27N 46°12' W 123°23'49365.6
2014-Dec-13 07:19N 45°33' W 122°42'3441.9
2014-Dec-13 06:31N 46°05' W 122°56'201409.3
2014-Dec-13 06:30N 46°12' W 123°23'43431.1
2014-Dec-13 06:24N 45°37' W 122°48'0 0.0
2014-Dec-13 05:33N 45°37' W 122°48'4377174.7
2014-Dec-13 05:33N 46°12' W 123°23'20109.4
2014-Dec-13 05:22N 46°05' W 122°56'2025.0
2014-Dec-13 04:33N 46°12' W 123°23'20572.5
2014-Dec-13 04:31N 46°05' W 122°56'34349.1
2014-Dec-13 04:25N 45°33' W 122°42'635.2
2014-Dec-13 04:15N 45°37' W 122°48'0 0.0
2014-Dec-13 03:33N 45°37' W 122°48'4319291.4
2014-Dec-13 03:33N 46°12' W 123°23'20572.5
2014-Dec-13 03:31N 46°05' W 122°56'2929.8
2014-Dec-13 02:33N 45°37' W 122°48'6170.2
2014-Dec-13 02:31N 45°33' W 122°42'3410093.8
2014-Dec-13 02:31N 46°05' W 122°56'201526.8
2014-Dec-13 02:30N 46°12' W 123°23'0 0.0
2014-Dec-13 01:33N 46°12' W 123°23'20149.0
2014-Dec-13 01:25N 46°05' W 122°56'292293.3
2014-Dec-13 01:24N 45°37' W 122°48'4347.6
2014-Dec-13 00:30N 46°12' W 123°23'49585.6
2014-Dec-13 00:25N 45°33' W 122°42'6357.7
2014-Dec-13 00:24N 45°37' W 122°48'29153.1
2014-Dec-13 00:13N 46°05' W 122°56'2943.3
2014-Dec-12 23:33N 45°37' W 122°48'4330869.9
2014-Dec-12 23:33N 46°12' W 123°23'20234.9
2014-Dec-12 23:28N 46°05' W 122°56'34170.8
2014-Dec-12 23:16N 45°33' W 122°42'6 8.2
2014-Dec-12 22:33N 45°37' W 122°48'4315434.9
2014-Dec-12 22:33N 46°12' W 123°23'20238.7
2014-Dec-12 22:28N 46°05' W 122°56'3484.6
2014-Dec-12 22:04N 45°33' W 122°42'4978.8
2014-Dec-12 21:27N 46°12' W 123°23'20236.4
2014-Dec-12 21:22N 46°05' W 122°56'29464.9
2014-Dec-12 21:18N 45°37' W 122°48'0 0.0
2014-Dec-12 20:33N 45°37' W 122°48'4319291.4
2014-Dec-12 20:33N 46°12' W 123°23'20237.9
2014-Dec-12 20:28N 46°05' W 122°56'2931.4
2014-Dec-12 19:33N 45°37' W 122°48'43210.9
2014-Dec-12 19:21N 46°12' W 123°23'491522.8
2014-Dec-12 19:19N 45°33' W 122°42'34323.0
2014-Dec-12 19:13N 46°05' W 122°56'2943.4
2014-Dec-12 18:33N 45°37' W 122°48'4314030.1
2014-Dec-12 18:33N 46°12' W 123°23'49587.6
2014-Dec-12 18:28N 45°33' W 122°42'341091.2
2014-Dec-12 18:26N 46°05' W 122°56'2023.0
2014-Dec-12 17:33N 46°12' W 123°23'491484.0
2014-Dec-12 17:31N 45°33' W 122°42'34414.8
2014-Dec-12 17:26N 46°05' W 122°56'29860.0
2014-Dec-12 17:24N 45°37' W 122°48'4350.2
2014-Dec-12 16:33N 46°12' W 123°23'201526.8
2014-Dec-12 16:32N 46°05' W 122°56'29344.0
2014-Dec-12 16:27N 45°37' W 122°48'6164.9
2014-Dec-12 16:25N 45°33' W 122°42'4956.1
2014-Dec-12 15:33N 46°12' W 123°23'201559.3
2014-Dec-12 15:32N 46°05' W 122°56'29839.0
2014-Dec-12 15:30N 45°37' W 122°48'631.5
2014-Dec-12 15:19N 45°33' W 122°42'6 7.7
2014-Dec-12 14:33N 45°37' W 122°48'291720.3
2014-Dec-12 14:32N 46°05' W 122°56'20149.9
2014-Dec-12 14:24N 46°12' W 123°23'49583.7
2014-Dec-12 14:19N 45°33' W 122°42'3443.1
2014-Dec-12 13:32N 46°05' W 122°56'20581.6
2014-Dec-12 13:30N 46°12' W 123°23'491412.2
2014-Dec-12 13:28N 45°33' W 122°42'6421.8
2014-Dec-12 13:27N 45°37' W 122°48'4347.5
2014-Dec-12 12:33N 46°12' W 123°23'201526.8
2014-Dec-12 12:32N 46°05' W 122°56'29867.2
2014-Dec-12 12:30N 45°37' W 122°48'6162.4
2014-Dec-12 12:28N 45°33' W 122°42'4950.3
2014-Dec-12 11:30N 46°12' W 123°23'201559.3
2014-Dec-12 11:29N 46°05' W 122°56'341730.1
2014-Dec-12 11:28N 45°33' W 122°42'6430.1
2014-Dec-12 11:27N 45°37' W 122°48'4347.4
2014-Dec-12 10:33N 46°12' W 123°23'201526.8
2014-Dec-12 10:32N 46°05' W 122°56'29882.2
2014-Dec-12 10:30N 45°37' W 122°48'668.0
2014-Dec-12 10:25N 45°33' W 122°42'3436.1
2014-Dec-12 09:29N 46°05' W 122°56'29349.8
2014-Dec-12 09:25N 45°37' W 122°48'43277.1
2014-Dec-12 09:15N 46°12' W 123°23'2028.5
2014-Dec-12 08:32N 46°05' W 122°56'29882.0
2014-Dec-12 08:30N 45°37' W 122°48'6163.6
2014-Dec-12 08:28N 45°33' W 122°42'49181.7
2014-Dec-12 08:12N 46°12' W 123°23'2030.7
2014-Dec-12 07:32N 46°05' W 122°56'29348.6
2014-Dec-12 07:28N 45°37' W 122°48'4311871.7
2014-Dec-12 07:27N 46°12' W 123°23'49171.5
2014-Dec-12 07:10N 45°33' W 122°42'0 0.0
2014-Dec-12 06:28N 45°33' W 122°42'341053.3
2014-Dec-12 06:26N 46°05' W 122°56'29889.8
2014-Dec-12 06:25N 45°37' W 122°48'43791.5
2014-Dec-12 06:21N 46°12' W 123°23'0 0.0
2014-Dec-12 05:33N 46°12' W 123°23'201526.8
2014-Dec-12 05:32N 46°05' W 122°56'29889.6
2014-Dec-12 05:31N 45°37' W 122°48'617.4
2014-Dec-12 05:10N 45°33' W 122°42'6 8.9
2014-Dec-12 04:31N 45°37' W 122°48'4311025.0
2014-Dec-12 04:30N 46°12' W 123°23'201357.1
2014-Dec-12 04:29N 46°05' W 122°56'341755.4
2014-Dec-12 04:28N 45°33' W 122°42'4953.0
2014-Dec-12 03:33N 46°12' W 123°23'201495.6
2014-Dec-12 03:32N 46°05' W 122°56'29913.3
2014-Dec-12 03:31N 45°37' W 122°48'6155.2
2014-Dec-12 03:28N 45°33' W 122°42'4950.3
2014-Dec-12 02:30N 46°12' W 123°23'201437.0
2014-Dec-12 02:29N 46°05' W 122°56'341781.3
2014-Dec-12 02:28N 45°33' W 122°42'  

Dump ship's entire track history